<?xml version="1.0" encoding="UTF-8" standalone="no" ?>
<gpx xmlns="http://www.topografix.com/GPX/1/1" xmlns:xsi="http://www.w3.org/2001/XMLSchema-instance" xsi:schemaLocation="http://www.topografix.com/GPX/1/1 http://www.topografix.com/GPX/1/1/gpx.xsd" version="1.1" creator="VisuGPX - https://www.visugpx.com">
  <metadata>
    <name>Causse-de-la-Selle - Rocs des Aucelous</name>
    <desc><![CDATA[2016-04 - Moustachou - Mas Gervais - Rocs des Aucelous

[b]album[/b] : [url]https://goo.gl/photos/NhuXywA6d79y8g767[/url]
[img]https://4.bp.blogspot.com/-2jeBvDlp36w/WNGE-j1U-bI/AAAAAAAARGQ/y6IpAN9DqfUbAgkoOsHV8SPeErIqbHu4gCLcB/s1600/2016-04_Causse-Selle_i.JPG[/img]
[b]Idées de randonnées dans la même région[/b]
Parcours : [url]https://www.visugpx.com/membres/24856/causses/saint-guilhem/[/url]
Photos : [url]https://jcvertygo.blogspot.com/p/saint-guilhem.html[/url]]]></desc>
  </metadata>
  <trk>
    <name><![CDATA[Causse-de-la-Selle - Rocs des Aucelous_1]]></name>
    <trkseg>
      <trkpt lat="43.80079" lon="3.62812">
        <ele>303.6</ele>
        <time>2016-04-24T13:27:33Z</time>
      </trkpt>
      <trkpt lat="43.80074" lon="3.62807">
        <ele>303.6</ele>
        <time>2016-04-24T13:27:38Z</time>
      </trkpt>
      <trkpt lat="43.80077" lon="3.62806">
        <ele>303.37373513566</ele>
        <time>2016-04-24T13:27:43Z</time>
      </trkpt>
      <trkpt lat="43.8008" lon="3.62801">
        <ele>303.37373513566</ele>
        <time>2016-04-24T13:27:48Z</time>
      </trkpt>
      <trkpt lat="43.80081" lon="3.62799">
        <ele>303.37373513566</ele>
        <time>2016-04-24T13:27:53Z</time>
      </trkpt>
      <trkpt lat="43.80084" lon="3.62798">
        <ele>304.94084947422</ele>
        <time>2016-04-24T13:28:28Z</time>
      </trkpt>
      <trkpt lat="43.80083" lon="3.628">
        <ele>304.94084947422</ele>
        <time>2016-04-24T13:28:33Z</time>
      </trkpt>
      <trkpt lat="43.80079" lon="3.62805">
        <ele>304.94084947422</ele>
        <time>2016-04-24T13:28:38Z</time>
      </trkpt>
      <trkpt lat="43.80077" lon="3.62811">
        <ele>306.72216088477</ele>
        <time>2016-04-24T13:28:43Z</time>
      </trkpt>
      <trkpt lat="43.80073" lon="3.62817">
        <ele>306.72216088477</ele>
        <time>2016-04-24T13:28:48Z</time>
      </trkpt>
      <trkpt lat="43.80069" lon="3.62821">
        <ele>308.27778517992</ele>
        <time>2016-04-24T13:28:53Z</time>
      </trkpt>
      <trkpt lat="43.80063" lon="3.62831">
        <ele>309.83077801646</ele>
        <time>2016-04-24T13:29:12Z</time>
      </trkpt>
      <trkpt lat="43.80058" lon="3.62836">
        <ele>309.83077801646</ele>
        <time>2016-04-24T13:29:12Z</time>
      </trkpt>
      <trkpt lat="43.80057" lon="3.62836">
        <ele>309.83077801646</ele>
        <time>2016-04-24T13:29:13Z</time>
      </trkpt>
      <trkpt lat="43.80049" lon="3.62838">
        <ele>311.38784655163</ele>
        <time>2016-04-24T13:29:29Z</time>
      </trkpt>
      <trkpt lat="43.80046" lon="3.62827">
        <ele>311.38784655163</ele>
        <time>2016-04-24T13:29:29Z</time>
      </trkpt>
      <trkpt lat="43.80049" lon="3.62657">
        <ele>312.55475102632</ele>
        <time>2016-04-24T13:31:21Z</time>
      </trkpt>
      <trkpt lat="43.80057" lon="3.626">
        <ele>313.14354985995</ele>
        <time>2016-04-24T13:31:59Z</time>
      </trkpt>
      <trkpt lat="43.80058" lon="3.62545">
        <ele>313.41991101208</ele>
        <time>2016-04-24T13:32:41Z</time>
      </trkpt>
      <trkpt lat="43.80071" lon="3.625">
        <ele>314.09786040053</ele>
        <time>2016-04-24T13:32:54Z</time>
      </trkpt>
      <trkpt lat="43.80075" lon="3.62494">
        <ele>314.09786040053</ele>
        <time>2016-04-24T13:32:58Z</time>
      </trkpt>
      <trkpt lat="43.80078" lon="3.62488">
        <ele>314.54493495056</ele>
        <time>2016-04-24T13:33:03Z</time>
      </trkpt>
      <trkpt lat="43.80111" lon="3.62365">
        <ele>313.98435316166</ele>
        <time>2016-04-24T13:34:22Z</time>
      </trkpt>
      <trkpt lat="43.80112" lon="3.62364">
        <ele>313.98435316166</ele>
        <time>2016-04-24T13:34:24Z</time>
      </trkpt>
      <trkpt lat="43.80131" lon="3.62343">
        <ele>312.9012193357</ele>
        <time>2016-04-24T13:34:50Z</time>
      </trkpt>
      <trkpt lat="43.80147" lon="3.62327">
        <ele>311.56902047129</ele>
        <time>2016-04-24T13:34:58Z</time>
      </trkpt>
      <trkpt lat="43.80197" lon="3.62247">
        <ele>310.98838282404</ele>
        <time>2016-04-24T13:36:06Z</time>
      </trkpt>
      <trkpt lat="43.80201" lon="3.62236">
        <ele>310.98838282404</ele>
        <time>2016-04-24T13:36:06Z</time>
      </trkpt>
      <trkpt lat="43.80224" lon="3.62213">
        <ele>310.59748498174</ele>
        <time>2016-04-24T13:36:28Z</time>
      </trkpt>
      <trkpt lat="43.80226" lon="3.62211">
        <ele>310.59748498174</ele>
        <time>2016-04-24T13:36:33Z</time>
      </trkpt>
      <trkpt lat="43.80229" lon="3.62208">
        <ele>310.59748498174</ele>
        <time>2016-04-24T13:36:53Z</time>
      </trkpt>
      <trkpt lat="43.80233" lon="3.62204">
        <ele>310.75184047048</ele>
        <time>2016-04-24T13:36:58Z</time>
      </trkpt>
      <trkpt lat="43.80236" lon="3.62201">
        <ele>310.75184047048</ele>
        <time>2016-04-24T13:37:03Z</time>
      </trkpt>
      <trkpt lat="43.80253" lon="3.62196">
        <ele>310.35242069218</ele>
        <time>2016-04-24T13:37:37Z</time>
      </trkpt>
      <trkpt lat="43.80381" lon="3.62153">
        <ele>310.28262032223</ele>
        <time>2016-04-24T13:39:36Z</time>
      </trkpt>
      <trkpt lat="43.80394" lon="3.6215">
        <ele>310.13450858694</ele>
        <time>2016-04-24T13:39:36Z</time>
      </trkpt>
      <trkpt lat="43.80399" lon="3.62147">
        <ele>310.13450858694</ele>
        <time>2016-04-24T13:39:44Z</time>
      </trkpt>
      <trkpt lat="43.804" lon="3.62146">
        <ele>310.13450858694</ele>
        <time>2016-04-24T13:39:45Z</time>
      </trkpt>
      <trkpt lat="43.8047" lon="3.62085">
        <ele>309.90637961847</ele>
        <time>2016-04-24T13:41:08Z</time>
      </trkpt>
      <trkpt lat="43.80479" lon="3.62075">
        <ele>309.73284397519</ele>
        <time>2016-04-24T13:41:25Z</time>
      </trkpt>
      <trkpt lat="43.80526" lon="3.62024">
        <ele>309.50520387683</ele>
        <time>2016-04-24T13:42:13Z</time>
      </trkpt>
      <trkpt lat="43.80526" lon="3.62023">
        <ele>309.50520387683</ele>
        <time>2016-04-24T13:42:13Z</time>
      </trkpt>
      <trkpt lat="43.80536" lon="3.62011">
        <ele>309.15724688767</ele>
        <time>2016-04-24T13:42:37Z</time>
      </trkpt>
      <trkpt lat="43.80543" lon="3.62001">
        <ele>308.79050211532</ele>
        <time>2016-04-24T13:42:37Z</time>
      </trkpt>
      <trkpt lat="43.80558" lon="3.61993">
        <ele>308.43612168501</ele>
        <time>2016-04-24T13:42:55Z</time>
      </trkpt>
      <trkpt lat="43.80568" lon="3.61986">
        <ele>308.34913386889</ele>
        <time>2016-04-24T13:42:58Z</time>
      </trkpt>
      <trkpt lat="43.80569" lon="3.61986">
        <ele>308.34913386889</ele>
        <time>2016-04-24T13:43:03Z</time>
      </trkpt>
      <trkpt lat="43.80574" lon="3.6198">
        <ele>308.34913386889</ele>
        <time>2016-04-24T13:43:08Z</time>
      </trkpt>
      <trkpt lat="43.80576" lon="3.61974">
        <ele>308.5173548023</ele>
        <time>2016-04-24T13:43:13Z</time>
      </trkpt>
      <trkpt lat="43.80593" lon="3.6195">
        <ele>308.74857731412</ele>
        <time>2016-04-24T13:43:41Z</time>
      </trkpt>
      <trkpt lat="43.80632" lon="3.61902">
        <ele>308.91126719027</ele>
        <time>2016-04-24T13:44:46Z</time>
      </trkpt>
      <trkpt lat="43.80664" lon="3.61877">
        <ele>308.96879945597</ele>
        <time>2016-04-24T13:45:13Z</time>
      </trkpt>
      <trkpt lat="43.80668" lon="3.61874">
        <ele>308.96879945597</ele>
        <time>2016-04-24T13:45:18Z</time>
      </trkpt>
      <trkpt lat="43.80682" lon="3.6186">
        <ele>308.76228094623</ele>
        <time>2016-04-24T13:46:00Z</time>
      </trkpt>
      <trkpt lat="43.80707" lon="3.61832">
        <ele>308.40779162418</ele>
        <time>2016-04-24T13:46:17Z</time>
      </trkpt>
      <trkpt lat="43.80716" lon="3.61831">
        <ele>308.40779162418</ele>
        <time>2016-04-24T13:46:17Z</time>
      </trkpt>
      <trkpt lat="43.80747" lon="3.61818">
        <ele>308.22147045299</ele>
        <time>2016-04-24T13:47:10Z</time>
      </trkpt>
      <trkpt lat="43.80776" lon="3.61825">
        <ele>308.55537444674</ele>
        <time>2016-04-24T13:47:40Z</time>
      </trkpt>
      <trkpt lat="43.80787" lon="3.61828">
        <ele>308.88651742848</ele>
        <time>2016-04-24T13:47:40Z</time>
      </trkpt>
      <trkpt lat="43.80795" lon="3.61835">
        <ele>309.31356463026</ele>
        <time>2016-04-24T13:48:00Z</time>
      </trkpt>
      <trkpt lat="43.80801" lon="3.61835">
        <ele>309.31356463026</ele>
        <time>2016-04-24T13:48:00Z</time>
      </trkpt>
      <trkpt lat="43.80824" lon="3.61828">
        <ele>309.85895584553</ele>
        <time>2016-04-24T13:48:29Z</time>
      </trkpt>
      <trkpt lat="43.80838" lon="3.61815">
        <ele>310.25828458145</ele>
        <time>2016-04-24T13:48:51Z</time>
      </trkpt>
      <trkpt lat="43.80864" lon="3.61786">
        <ele>310.59125065167</ele>
        <time>2016-04-24T13:49:17Z</time>
      </trkpt>
      <trkpt lat="43.80865" lon="3.61785">
        <ele>310.59125065167</ele>
        <time>2016-04-24T13:49:18Z</time>
      </trkpt>
      <trkpt lat="43.80911" lon="3.61745">
        <ele>310.89040203677</ele>
        <time>2016-04-24T13:50:02Z</time>
      </trkpt>
      <trkpt lat="43.80925" lon="3.61744">
        <ele>311.2596802377</ele>
        <time>2016-04-24T13:50:16Z</time>
      </trkpt>
      <trkpt lat="43.80927" lon="3.61746">
        <ele>311.2596802377</ele>
        <time>2016-04-24T13:50:18Z</time>
      </trkpt>
      <trkpt lat="43.80932" lon="3.61749">
        <ele>311.2596802377</ele>
        <time>2016-04-24T13:50:23Z</time>
      </trkpt>
      <trkpt lat="43.80937" lon="3.61752">
        <ele>311.69477423593</ele>
        <time>2016-04-24T13:50:28Z</time>
      </trkpt>
      <trkpt lat="43.8094" lon="3.61754">
        <ele>311.69477423593</ele>
        <time>2016-04-24T13:50:33Z</time>
      </trkpt>
      <trkpt lat="43.80946" lon="3.61757">
        <ele>312.10274158889</ele>
        <time>2016-04-24T13:50:38Z</time>
      </trkpt>
      <trkpt lat="43.80962" lon="3.61767">
        <ele>312.49966969698</ele>
        <time>2016-04-24T13:51:04Z</time>
      </trkpt>
      <trkpt lat="43.80967" lon="3.6177">
        <ele>312.49966969698</ele>
        <time>2016-04-24T13:51:04Z</time>
      </trkpt>
      <trkpt lat="43.80991" lon="3.61783">
        <ele>312.79653554461</ele>
        <time>2016-04-24T13:51:28Z</time>
      </trkpt>
      <trkpt lat="43.81042" lon="3.61813">
        <ele>312.7606817994</ele>
        <time>2016-04-24T13:52:54Z</time>
      </trkpt>
      <trkpt lat="43.81061" lon="3.61802">
        <ele>312.46114326598</ele>
        <time>2016-04-24T13:53:18Z</time>
      </trkpt>
      <trkpt lat="43.8106" lon="3.61798">
        <ele>312.46114326598</ele>
        <time>2016-04-24T13:53:23Z</time>
      </trkpt>
      <trkpt lat="43.81063" lon="3.61791">
        <ele>312.46114326598</ele>
        <time>2016-04-24T13:53:31Z</time>
      </trkpt>
      <trkpt lat="43.81064" lon="3.61784">
        <ele>312.1897895394</ele>
        <time>2016-04-24T13:53:58Z</time>
      </trkpt>
      <trkpt lat="43.81066" lon="3.61782">
        <ele>312.1897895394</ele>
        <time>2016-04-24T13:54:03Z</time>
      </trkpt>
      <trkpt lat="43.81068" lon="3.6178">
        <ele>312.1897895394</ele>
        <time>2016-04-24T13:54:08Z</time>
      </trkpt>
      <trkpt lat="43.81065" lon="3.61786">
        <ele>311.96231081299</ele>
        <time>2016-04-24T13:54:33Z</time>
      </trkpt>
      <trkpt lat="43.81112" lon="3.61858">
        <ele>311.44584488357</ele>
        <time>2016-04-24T13:55:38Z</time>
      </trkpt>
      <trkpt lat="43.81116" lon="3.61867">
        <ele>311.44584488357</ele>
        <time>2016-04-24T13:55:43Z</time>
      </trkpt>
      <trkpt lat="43.81129" lon="3.61888">
        <ele>310.81626744542</ele>
        <time>2016-04-24T13:56:03Z</time>
      </trkpt>
      <trkpt lat="43.81139" lon="3.61903">
        <ele>310.10091037869</ele>
        <time>2016-04-24T13:56:30Z</time>
      </trkpt>
      <trkpt lat="43.81166" lon="3.61898">
        <ele>309.24980570409</ele>
        <time>2016-04-24T13:57:07Z</time>
      </trkpt>
      <trkpt lat="43.8117" lon="3.61897">
        <ele>309.24980570409</ele>
        <time>2016-04-24T13:57:24Z</time>
      </trkpt>
      <trkpt lat="43.81166" lon="3.61896">
        <ele>309.24980570409</ele>
        <time>2016-04-24T13:57:33Z</time>
      </trkpt>
      <trkpt lat="43.81166" lon="3.61896">
        <ele>309.24980570409</ele>
        <time>2016-04-24T13:57:38Z</time>
      </trkpt>
      <trkpt lat="43.81161" lon="3.61894">
        <ele>308.35300814363</ele>
        <time>2016-04-24T13:57:48Z</time>
      </trkpt>
      <trkpt lat="43.81161" lon="3.61894">
        <ele>308.35300814363</ele>
        <time>2016-04-24T13:57:53Z</time>
      </trkpt>
      <trkpt lat="43.81161" lon="3.61898">
        <ele>308.35300814363</ele>
        <time>2016-04-24T13:57:58Z</time>
      </trkpt>
      <trkpt lat="43.81156" lon="3.619">
        <ele>308.35300814363</ele>
        <time>2016-04-24T13:58:03Z</time>
      </trkpt>
      <trkpt lat="43.81151" lon="3.61901">
        <ele>307.64388461272</ele>
        <time>2016-04-24T13:58:08Z</time>
      </trkpt>
      <trkpt lat="43.81145" lon="3.61903">
        <ele>307.64388461272</ele>
        <time>2016-04-24T13:58:13Z</time>
      </trkpt>
      <trkpt lat="43.81139" lon="3.61905">
        <ele>307.06533788623</ele>
        <time>2016-04-24T13:58:18Z</time>
      </trkpt>
      <trkpt lat="43.81144" lon="3.61922">
        <ele>306.57924709449</ele>
        <time>2016-04-24T13:58:43Z</time>
      </trkpt>
      <trkpt lat="43.81162" lon="3.61968">
        <ele>306.10527158763</ele>
        <time>2016-04-24T13:59:19Z</time>
      </trkpt>
      <trkpt lat="43.81165" lon="3.61975">
        <ele>306.10527158763</ele>
        <time>2016-04-24T13:59:19Z</time>
      </trkpt>
      <trkpt lat="43.81177" lon="3.61999">
        <ele>305.67414552566</ele>
        <time>2016-04-24T13:59:41Z</time>
      </trkpt>
      <trkpt lat="43.81181" lon="3.62007">
        <ele>305.67414552566</ele>
        <time>2016-04-24T13:59:41Z</time>
      </trkpt>
      <trkpt lat="43.81182" lon="3.62009">
        <ele>305.67414552566</ele>
        <time>2016-04-24T13:59:43Z</time>
      </trkpt>
      <trkpt lat="43.81189" lon="3.62021">
        <ele>305.28400361396</ele>
        <time>2016-04-24T13:59:58Z</time>
      </trkpt>
      <trkpt lat="43.81196" lon="3.62042">
        <ele>304.947791612</ele>
        <time>2016-04-24T14:00:14Z</time>
      </trkpt>
      <trkpt lat="43.81202" lon="3.62051">
        <ele>304.70678376863</ele>
        <time>2016-04-24T14:00:17Z</time>
      </trkpt>
      <trkpt lat="43.81209" lon="3.62062">
        <ele>304.46542489638</ele>
        <time>2016-04-24T14:00:25Z</time>
      </trkpt>
      <trkpt lat="43.81232" lon="3.62092">
        <ele>304.2246141218</ele>
        <time>2016-04-24T14:01:06Z</time>
      </trkpt>
      <trkpt lat="43.81273" lon="3.62132">
        <ele>303.98513393071</ele>
        <time>2016-04-24T14:01:40Z</time>
      </trkpt>
      <trkpt lat="43.81274" lon="3.62131">
        <ele>303.98513393071</ele>
        <time>2016-04-24T14:01:40Z</time>
      </trkpt>
      <trkpt lat="43.81277" lon="3.62129">
        <ele>303.98513393071</ele>
        <time>2016-04-24T14:01:43Z</time>
      </trkpt>
      <trkpt lat="43.81282" lon="3.62126">
        <ele>303.73298127916</ele>
        <time>2016-04-24T14:01:48Z</time>
      </trkpt>
      <trkpt lat="43.81286" lon="3.62124">
        <ele>303.73298127916</ele>
        <time>2016-04-24T14:01:53Z</time>
      </trkpt>
      <trkpt lat="43.8129" lon="3.6212">
        <ele>303.38206601305</ele>
        <time>2016-04-24T14:01:58Z</time>
      </trkpt>
      <trkpt lat="43.81294" lon="3.62116">
        <ele>303.38206601305</ele>
        <time>2016-04-24T14:02:03Z</time>
      </trkpt>
      <trkpt lat="43.81297" lon="3.62112">
        <ele>302.95587047235</ele>
        <time>2016-04-24T14:02:08Z</time>
      </trkpt>
      <trkpt lat="43.81303" lon="3.62076">
        <ele>302.16968884757</ele>
        <time>2016-04-24T14:02:45Z</time>
      </trkpt>
      <trkpt lat="43.81307" lon="3.62064">
        <ele>301.38888056835</ele>
        <time>2016-04-24T14:02:45Z</time>
      </trkpt>
      <trkpt lat="43.8131" lon="3.62049">
        <ele>300.67312012522</ele>
        <time>2016-04-24T14:02:54Z</time>
      </trkpt>
      <trkpt lat="43.81312" lon="3.62041">
        <ele>300.67312012522</ele>
        <time>2016-04-24T14:03:00Z</time>
      </trkpt>
      <trkpt lat="43.81312" lon="3.62018">
        <ele>299.91741657963</ele>
        <time>2016-04-24T14:03:22Z</time>
      </trkpt>
      <trkpt lat="43.81307" lon="3.62012">
        <ele>299.91741657963</ele>
        <time>2016-04-24T14:03:25Z</time>
      </trkpt>
      <trkpt lat="43.81305" lon="3.62009">
        <ele>299.2571787983</ele>
        <time>2016-04-24T14:03:28Z</time>
      </trkpt>
      <trkpt lat="43.81302" lon="3.62004">
        <ele>299.2571787983</ele>
        <time>2016-04-24T14:03:41Z</time>
      </trkpt>
      <trkpt lat="43.81294" lon="3.61994">
        <ele>298.7734969037</ele>
        <time>2016-04-24T14:03:48Z</time>
      </trkpt>
      <trkpt lat="43.81269" lon="3.61955">
        <ele>298.55520492461</ele>
        <time>2016-04-24T14:05:00Z</time>
      </trkpt>
      <trkpt lat="43.81249" lon="3.61866">
        <ele>297.93165534592</ele>
        <time>2016-04-24T14:05:59Z</time>
      </trkpt>
      <trkpt lat="43.81242" lon="3.6185">
        <ele>297.29607025398</ele>
        <time>2016-04-24T14:06:19Z</time>
      </trkpt>
      <trkpt lat="43.81241" lon="3.61839">
        <ele>297.29607025398</ele>
        <time>2016-04-24T14:06:19Z</time>
      </trkpt>
      <trkpt lat="43.81245" lon="3.61815">
        <ele>296.53507685601</ele>
        <time>2016-04-24T14:06:34Z</time>
      </trkpt>
      <trkpt lat="43.81242" lon="3.61763">
        <ele>296.04938700098</ele>
        <time>2016-04-24T14:07:24Z</time>
      </trkpt>
      <trkpt lat="43.81243" lon="3.61756">
        <ele>296.04938700098</ele>
        <time>2016-04-24T14:07:24Z</time>
      </trkpt>
      <trkpt lat="43.81246" lon="3.61749">
        <ele>295.6027628677</ele>
        <time>2016-04-24T14:07:35Z</time>
      </trkpt>
      <trkpt lat="43.81247" lon="3.61748">
        <ele>295.6027628677</ele>
        <time>2016-04-24T14:07:35Z</time>
      </trkpt>
      <trkpt lat="43.81253" lon="3.61702">
        <ele>295.29390284838</ele>
        <time>2016-04-24T14:08:31Z</time>
      </trkpt>
      <trkpt lat="43.81254" lon="3.6169">
        <ele>295.29390284838</ele>
        <time>2016-04-24T14:08:31Z</time>
      </trkpt>
      <trkpt lat="43.81254" lon="3.61685">
        <ele>295.01183176515</ele>
        <time>2016-04-24T14:08:43Z</time>
      </trkpt>
      <trkpt lat="43.8126" lon="3.61679">
        <ele>295.01183176515</ele>
        <time>2016-04-24T14:09:13Z</time>
      </trkpt>
      <trkpt lat="43.81261" lon="3.61678">
        <ele>295.01183176515</ele>
        <time>2016-04-24T14:09:18Z</time>
      </trkpt>
      <trkpt lat="43.81262" lon="3.61677">
        <ele>295.28819991747</ele>
        <time>2016-04-24T14:09:23Z</time>
      </trkpt>
      <trkpt lat="43.81257" lon="3.61661">
        <ele>295.77748932133</ele>
        <time>2016-04-24T14:09:49Z</time>
      </trkpt>
      <trkpt lat="43.81249" lon="3.6165">
        <ele>296.43305503831</ele>
        <time>2016-04-24T14:10:23Z</time>
      </trkpt>
      <trkpt lat="43.81243" lon="3.61626">
        <ele>297.18237121316</ele>
        <time>2016-04-24T14:10:56Z</time>
      </trkpt>
      <trkpt lat="43.81242" lon="3.61613">
        <ele>298.20306299446</ele>
        <time>2016-04-24T14:11:22Z</time>
      </trkpt>
      <trkpt lat="43.81236" lon="3.61606">
        <ele>298.20306299446</ele>
        <time>2016-04-24T14:11:22Z</time>
      </trkpt>
      <trkpt lat="43.81233" lon="3.61577">
        <ele>299.34174347389</ele>
        <time>2016-04-24T14:11:48Z</time>
      </trkpt>
      <trkpt lat="43.81235" lon="3.61532">
        <ele>300.68665140724</ele>
        <time>2016-04-24T14:12:45Z</time>
      </trkpt>
      <trkpt lat="43.81238" lon="3.61519">
        <ele>301.92965960972</ele>
        <time>2016-04-24T14:12:45Z</time>
      </trkpt>
      <trkpt lat="43.81241" lon="3.61507">
        <ele>303.18930448495</ele>
        <time>2016-04-24T14:13:01Z</time>
      </trkpt>
      <trkpt lat="43.81243" lon="3.61497">
        <ele>303.18930448495</ele>
        <time>2016-04-24T14:13:18Z</time>
      </trkpt>
      <trkpt lat="43.81245" lon="3.6149">
        <ele>304.41678534872</ele>
        <time>2016-04-24T14:13:26Z</time>
      </trkpt>
      <trkpt lat="43.81265" lon="3.61473">
        <ele>305.53817139694</ele>
        <time>2016-04-24T14:13:46Z</time>
      </trkpt>
      <trkpt lat="43.81267" lon="3.61473">
        <ele>305.53817139694</ele>
        <time>2016-04-24T14:13:48Z</time>
      </trkpt>
      <trkpt lat="43.8134" lon="3.61486">
        <ele>306.19685690814</ele>
        <time>2016-04-24T14:15:00Z</time>
      </trkpt>
      <trkpt lat="43.81353" lon="3.61411">
        <ele>307.0589720127</ele>
        <time>2016-04-24T14:15:48Z</time>
      </trkpt>
      <trkpt lat="43.81311" lon="3.61328">
        <ele>308.35182548271</ele>
        <time>2016-04-24T14:16:56Z</time>
      </trkpt>
      <trkpt lat="43.81303" lon="3.61315">
        <ele>309.67907837705</ele>
        <time>2016-04-24T14:16:56Z</time>
      </trkpt>
      <trkpt lat="43.81277" lon="3.61254">
        <ele>311.32257417963</ele>
        <time>2016-04-24T14:17:43Z</time>
      </trkpt>
      <trkpt lat="43.81205" lon="3.61135">
        <ele>313.52821515098</ele>
        <time>2016-04-24T14:19:12Z</time>
      </trkpt>
      <trkpt lat="43.81193" lon="3.61118">
        <ele>315.61359430141</ele>
        <time>2016-04-24T14:19:25Z</time>
      </trkpt>
      <trkpt lat="43.81182" lon="3.61092">
        <ele>317.65372097256</ele>
        <time>2016-04-24T14:19:43Z</time>
      </trkpt>
      <trkpt lat="43.81168" lon="3.61079">
        <ele>319.89142277506</ele>
        <time>2016-04-24T14:19:58Z</time>
      </trkpt>
      <trkpt lat="43.81163" lon="3.6108">
        <ele>319.89142277506</ele>
        <time>2016-04-24T14:20:28Z</time>
      </trkpt>
      <trkpt lat="43.81157" lon="3.6108">
        <ele>322.47910976594</ele>
        <time>2016-04-24T14:20:33Z</time>
      </trkpt>
      <trkpt lat="43.81132" lon="3.61089">
        <ele>324.67732046154</ele>
        <time>2016-04-24T14:20:58Z</time>
      </trkpt>
      <trkpt lat="43.81086" lon="3.611">
        <ele>326.17727322318</ele>
        <time>2016-04-24T14:21:41Z</time>
      </trkpt>
      <trkpt lat="43.81075" lon="3.61096">
        <ele>327.44497990442</ele>
        <time>2016-04-24T14:22:00Z</time>
      </trkpt>
      <trkpt lat="43.81031" lon="3.61054">
        <ele>329.47534968401</ele>
        <time>2016-04-24T14:22:56Z</time>
      </trkpt>
      <trkpt lat="43.81029" lon="3.61043">
        <ele>329.47534968401</ele>
        <time>2016-04-24T14:22:56Z</time>
      </trkpt>
      <trkpt lat="43.81039" lon="3.61026">
        <ele>331.37104106356</ele>
        <time>2016-04-24T14:23:22Z</time>
      </trkpt>
      <trkpt lat="43.81045" lon="3.6102">
        <ele>331.37104106356</ele>
        <time>2016-04-24T14:23:22Z</time>
      </trkpt>
      <trkpt lat="43.8105" lon="3.60988">
        <ele>333.25304602051</ele>
        <time>2016-04-24T14:23:43Z</time>
      </trkpt>
      <trkpt lat="43.81035" lon="3.60811">
        <ele>334.94525619464</ele>
        <time>2016-04-24T14:26:18Z</time>
      </trkpt>
      <trkpt lat="43.81008" lon="3.60812">
        <ele>336.96287184489</ele>
        <time>2016-04-24T14:26:47Z</time>
      </trkpt>
      <trkpt lat="43.80996" lon="3.60823">
        <ele>338.70107739246</ele>
        <time>2016-04-24T14:27:00Z</time>
      </trkpt>
      <trkpt lat="43.80994" lon="3.60826">
        <ele>338.70107739246</ele>
        <time>2016-04-24T14:27:00Z</time>
      </trkpt>
      <trkpt lat="43.80957" lon="3.6082">
        <ele>340.10512541292</ele>
        <time>2016-04-24T14:27:43Z</time>
      </trkpt>
      <trkpt lat="43.80954" lon="3.60798">
        <ele>341.22629422011</ele>
        <time>2016-04-24T14:28:00Z</time>
      </trkpt>
      <trkpt lat="43.80954" lon="3.60793">
        <ele>341.22629422011</ele>
        <time>2016-04-24T14:28:05Z</time>
      </trkpt>
      <trkpt lat="43.80853" lon="3.60729">
        <ele>345.1402500772</ele>
        <time>2016-04-24T14:31:41Z</time>
      </trkpt>
      <trkpt lat="43.80852" lon="3.60728">
        <ele>345.1402500772</ele>
        <time>2016-04-24T14:31:43Z</time>
      </trkpt>
      <trkpt lat="43.80835" lon="3.60679">
        <ele>351.45963829329</ele>
        <time>2016-04-24T14:33:41Z</time>
      </trkpt>
      <trkpt lat="43.80834" lon="3.60679">
        <ele>351.45963829329</ele>
        <time>2016-04-24T14:33:49Z</time>
      </trkpt>
      <trkpt lat="43.80829" lon="3.60675">
        <ele>351.45963829329</ele>
        <time>2016-04-24T14:33:49Z</time>
      </trkpt>
      <trkpt lat="43.80808" lon="3.60659">
        <ele>358.47855312083</ele>
        <time>2016-04-24T14:34:22Z</time>
      </trkpt>
      <trkpt lat="43.80803" lon="3.60655">
        <ele>358.47855312083</ele>
        <time>2016-04-24T14:34:23Z</time>
      </trkpt>
      <trkpt lat="43.808" lon="3.60649">
        <ele>365.00406492465</ele>
        <time>2016-04-24T14:34:28Z</time>
      </trkpt>
      <trkpt lat="43.80797" lon="3.60647">
        <ele>365.00406492465</ele>
        <time>2016-04-24T14:34:33Z</time>
      </trkpt>
      <trkpt lat="43.80796" lon="3.60645">
        <ele>365.00406492465</ele>
        <time>2016-04-24T14:34:43Z</time>
      </trkpt>
      <trkpt lat="43.80794" lon="3.60639">
        <ele>371.14334973493</ele>
        <time>2016-04-24T14:34:48Z</time>
      </trkpt>
      <trkpt lat="43.80789" lon="3.60627">
        <ele>376.8528945923</ele>
        <time>2016-04-24T14:35:11Z</time>
      </trkpt>
      <trkpt lat="43.80768" lon="3.6058">
        <ele>382.74242704506</ele>
        <time>2016-04-24T14:35:44Z</time>
      </trkpt>
      <trkpt lat="43.80765" lon="3.60576">
        <ele>382.74242704506</ele>
        <time>2016-04-24T14:35:48Z</time>
      </trkpt>
      <trkpt lat="43.80761" lon="3.6057">
        <ele>388.16598603548</ele>
        <time>2016-04-24T14:35:53Z</time>
      </trkpt>
      <trkpt lat="43.80756" lon="3.60566">
        <ele>388.16598603548</ele>
        <time>2016-04-24T14:36:09Z</time>
      </trkpt>
      <trkpt lat="43.8075" lon="3.60563">
        <ele>393.18967654393</ele>
        <time>2016-04-24T14:36:09Z</time>
      </trkpt>
      <trkpt lat="43.80737" lon="3.60556">
        <ele>397.71764770285</ele>
        <time>2016-04-24T14:36:26Z</time>
      </trkpt>
      <trkpt lat="43.80731" lon="3.60551">
        <ele>397.71764770285</ele>
        <time>2016-04-24T14:36:26Z</time>
      </trkpt>
      <trkpt lat="43.80675" lon="3.6053">
        <ele>401.08633586634</ele>
        <time>2016-04-24T14:37:29Z</time>
      </trkpt>
      <trkpt lat="43.8066" lon="3.60529">
        <ele>403.80861391337</ele>
        <time>2016-04-24T14:37:29Z</time>
      </trkpt>
      <trkpt lat="43.80593" lon="3.60528">
        <ele>405.54032859437</ele>
        <time>2016-04-24T14:38:31Z</time>
      </trkpt>
      <trkpt lat="43.80548" lon="3.6052">
        <ele>407.21947432521</ele>
        <time>2016-04-24T14:39:24Z</time>
      </trkpt>
      <trkpt lat="43.8054" lon="3.60517">
        <ele>407.21947432521</ele>
        <time>2016-04-24T14:39:24Z</time>
      </trkpt>
      <trkpt lat="43.80523" lon="3.60507">
        <ele>408.7211660021</ele>
        <time>2016-04-24T14:39:46Z</time>
      </trkpt>
      <trkpt lat="43.80516" lon="3.605">
        <ele>408.7211660021</ele>
        <time>2016-04-24T14:39:51Z</time>
      </trkpt>
      <trkpt lat="43.80508" lon="3.60495">
        <ele>410.06014744913</ele>
        <time>2016-04-24T14:40:06Z</time>
      </trkpt>
      <trkpt lat="43.80502" lon="3.60491">
        <ele>410.06014744913</ele>
        <time>2016-04-24T14:40:06Z</time>
      </trkpt>
      <trkpt lat="43.80462" lon="3.60463">
        <ele>410.99136211578</ele>
        <time>2016-04-24T14:40:57Z</time>
      </trkpt>
      <trkpt lat="43.80457" lon="3.60454">
        <ele>410.99136211578</ele>
        <time>2016-04-24T14:40:57Z</time>
      </trkpt>
      <trkpt lat="43.8043" lon="3.60423">
        <ele>411.00087681521</ele>
        <time>2016-04-24T14:41:33Z</time>
      </trkpt>
      <trkpt lat="43.80426" lon="3.60422">
        <ele>411.00087681521</ele>
        <time>2016-04-24T14:41:53Z</time>
      </trkpt>
      <trkpt lat="43.80318" lon="3.60438">
        <ele>411.27256579603</ele>
        <time>2016-04-24T14:43:53Z</time>
      </trkpt>
      <trkpt lat="43.80317" lon="3.60446">
        <ele>411.27256579603</ele>
        <time>2016-04-24T14:43:58Z</time>
      </trkpt>
      <trkpt lat="43.80315" lon="3.60462">
        <ele>411.34633131086</ele>
        <time>2016-04-24T14:44:12Z</time>
      </trkpt>
      <trkpt lat="43.80314" lon="3.60466">
        <ele>411.34633131086</ele>
        <time>2016-04-24T14:44:12Z</time>
      </trkpt>
      <trkpt lat="43.80314" lon="3.60468">
        <ele>411.34633131086</ele>
        <time>2016-04-24T14:44:13Z</time>
      </trkpt>
      <trkpt lat="43.80312" lon="3.605">
        <ele>411.24329514348</ele>
        <time>2016-04-24T14:44:50Z</time>
      </trkpt>
      <trkpt lat="43.80308" lon="3.60512">
        <ele>411.02684494983</ele>
        <time>2016-04-24T14:45:07Z</time>
      </trkpt>
      <trkpt lat="43.80298" lon="3.60498">
        <ele>410.68403306296</ele>
        <time>2016-04-24T14:45:34Z</time>
      </trkpt>
      <trkpt lat="43.80275" lon="3.60479">
        <ele>410.27530628388</ele>
        <time>2016-04-24T14:46:11Z</time>
      </trkpt>
      <trkpt lat="43.80273" lon="3.60476">
        <ele>410.27530628388</ele>
        <time>2016-04-24T14:46:11Z</time>
      </trkpt>
      <trkpt lat="43.80252" lon="3.60439">
        <ele>409.81362782993</ele>
        <time>2016-04-24T14:46:57Z</time>
      </trkpt>
      <trkpt lat="43.80251" lon="3.60433">
        <ele>409.81362782993</ele>
        <time>2016-04-24T14:46:59Z</time>
      </trkpt>
      <trkpt lat="43.8025" lon="3.60431">
        <ele>409.81362782993</ele>
        <time>2016-04-24T14:46:59Z</time>
      </trkpt>
      <trkpt lat="43.80218" lon="3.6038">
        <ele>409.18143505617</ele>
        <time>2016-04-24T14:47:58Z</time>
      </trkpt>
      <trkpt lat="43.80207" lon="3.60368">
        <ele>408.41435031548</ele>
        <time>2016-04-24T14:48:14Z</time>
      </trkpt>
      <trkpt lat="43.80197" lon="3.60348">
        <ele>407.45922241351</ele>
        <time>2016-04-24T14:48:38Z</time>
      </trkpt>
      <trkpt lat="43.80192" lon="3.60342">
        <ele>407.45922241351</ele>
        <time>2016-04-24T14:48:38Z</time>
      </trkpt>
      <trkpt lat="43.80178" lon="3.60315">
        <ele>406.31047750212</ele>
        <time>2016-04-24T14:49:03Z</time>
      </trkpt>
      <trkpt lat="43.80151" lon="3.6026">
        <ele>405.19396753994</ele>
        <time>2016-04-24T14:49:59Z</time>
      </trkpt>
      <trkpt lat="43.80149" lon="3.60235">
        <ele>403.95844467498</ele>
        <time>2016-04-24T14:50:23Z</time>
      </trkpt>
      <trkpt lat="43.80173" lon="3.60151">
        <ele>402.31983937371</ele>
        <time>2016-04-24T14:51:35Z</time>
      </trkpt>
      <trkpt lat="43.80176" lon="3.60148">
        <ele>402.31983937371</ele>
        <time>2016-04-24T14:51:38Z</time>
      </trkpt>
      <trkpt lat="43.80178" lon="3.60147">
        <ele>402.31983937371</ele>
        <time>2016-04-24T14:52:18Z</time>
      </trkpt>
      <trkpt lat="43.80175" lon="3.60151">
        <ele>400.98148047948</ele>
        <time>2016-04-24T14:52:23Z</time>
      </trkpt>
      <trkpt lat="43.80172" lon="3.60157">
        <ele>400.98148047948</ele>
        <time>2016-04-24T14:52:28Z</time>
      </trkpt>
      <trkpt lat="43.80168" lon="3.60162">
        <ele>399.75813370836</ele>
        <time>2016-04-24T14:52:33Z</time>
      </trkpt>
      <trkpt lat="43.80165" lon="3.60165">
        <ele>399.75813370836</ele>
        <time>2016-04-24T14:52:38Z</time>
      </trkpt>
      <trkpt lat="43.80162" lon="3.60163">
        <ele>399.75813370836</ele>
        <time>2016-04-24T14:52:43Z</time>
      </trkpt>
      <trkpt lat="43.80158" lon="3.60159">
        <ele>398.62176204985</ele>
        <time>2016-04-24T14:52:48Z</time>
      </trkpt>
      <trkpt lat="43.80153" lon="3.60154">
        <ele>398.62176204985</ele>
        <time>2016-04-24T14:52:53Z</time>
      </trkpt>
      <trkpt lat="43.80147" lon="3.60147">
        <ele>397.76210095473</ele>
        <time>2016-04-24T14:53:16Z</time>
      </trkpt>
      <trkpt lat="43.80143" lon="3.60147">
        <ele>397.76210095473</ele>
        <time>2016-04-24T14:53:16Z</time>
      </trkpt>
      <trkpt lat="43.80142" lon="3.60148">
        <ele>397.76210095473</ele>
        <time>2016-04-24T14:53:17Z</time>
      </trkpt>
      <trkpt lat="43.80126" lon="3.6011">
        <ele>397.12336341019</ele>
        <time>2016-04-24T14:54:18Z</time>
      </trkpt>
      <trkpt lat="43.80132" lon="3.60101">
        <ele>396.4944842289</ele>
        <time>2016-04-24T14:54:58Z</time>
      </trkpt>
      <trkpt lat="43.80132" lon="3.60102">
        <ele>396.4944842289</ele>
        <time>2016-04-24T14:55:03Z</time>
      </trkpt>
      <trkpt lat="43.80163" lon="3.60176">
        <ele>395.27612076896</ele>
        <time>2016-04-24T14:56:40Z</time>
      </trkpt>
      <trkpt lat="43.80163" lon="3.60181">
        <ele>395.27612076896</ele>
        <time>2016-04-24T14:56:43Z</time>
      </trkpt>
      <trkpt lat="43.80163" lon="3.6019">
        <ele>393.95199369273</ele>
        <time>2016-04-24T14:56:51Z</time>
      </trkpt>
      <trkpt lat="43.80162" lon="3.60193">
        <ele>393.95199369273</ele>
        <time>2016-04-24T14:56:53Z</time>
      </trkpt>
      <trkpt lat="43.80161" lon="3.60199">
        <ele>393.95199369273</ele>
        <time>2016-04-24T14:56:58Z</time>
      </trkpt>
      <trkpt lat="43.80159" lon="3.60205">
        <ele>392.5379973582</ele>
        <time>2016-04-24T14:57:03Z</time>
      </trkpt>
      <trkpt lat="43.80156" lon="3.60213">
        <ele>392.5379973582</ele>
        <time>2016-04-24T14:57:08Z</time>
      </trkpt>
      <trkpt lat="43.80154" lon="3.60221">
        <ele>391.16415089805</ele>
        <time>2016-04-24T14:57:13Z</time>
      </trkpt>
      <trkpt lat="43.80152" lon="3.60227">
        <ele>391.16415089805</ele>
        <time>2016-04-24T14:57:18Z</time>
      </trkpt>
      <trkpt lat="43.8015" lon="3.60231">
        <ele>391.16415089805</ele>
        <time>2016-04-24T14:57:23Z</time>
      </trkpt>
      <trkpt lat="43.80149" lon="3.60235">
        <ele>389.87849714947</ele>
        <time>2016-04-24T14:57:28Z</time>
      </trkpt>
      <trkpt lat="43.80147" lon="3.60242">
        <ele>389.87849714947</ele>
        <time>2016-04-24T14:57:33Z</time>
      </trkpt>
      <trkpt lat="43.80147" lon="3.60249">
        <ele>388.66739810241</ele>
        <time>2016-04-24T14:57:38Z</time>
      </trkpt>
      <trkpt lat="43.80147" lon="3.60254">
        <ele>388.66739810241</ele>
        <time>2016-04-24T14:57:43Z</time>
      </trkpt>
      <trkpt lat="43.80148" lon="3.60259">
        <ele>388.66739810241</ele>
        <time>2016-04-24T14:57:48Z</time>
      </trkpt>
      <trkpt lat="43.8015" lon="3.60264">
        <ele>387.51774755606</ele>
        <time>2016-04-24T14:57:53Z</time>
      </trkpt>
      <trkpt lat="43.80152" lon="3.60268">
        <ele>387.51774755606</ele>
        <time>2016-04-24T14:57:58Z</time>
      </trkpt>
      <trkpt lat="43.80152" lon="3.60274">
        <ele>387.51774755606</ele>
        <time>2016-04-24T14:58:03Z</time>
      </trkpt>
      <trkpt lat="43.8015" lon="3.6028">
        <ele>386.41696810999</ele>
        <time>2016-04-24T14:58:08Z</time>
      </trkpt>
      <trkpt lat="43.80146" lon="3.60279">
        <ele>386.41696810999</ele>
        <time>2016-04-24T14:58:13Z</time>
      </trkpt>
      <trkpt lat="43.8014" lon="3.60275">
        <ele>385.39624206391</ele>
        <time>2016-04-24T14:58:18Z</time>
      </trkpt>
      <trkpt lat="43.80135" lon="3.60273">
        <ele>385.39624206391</ele>
        <time>2016-04-24T14:58:23Z</time>
      </trkpt>
      <trkpt lat="43.80131" lon="3.6027">
        <ele>384.51280003195</ele>
        <time>2016-04-24T14:58:28Z</time>
      </trkpt>
      <trkpt lat="43.80126" lon="3.60267">
        <ele>384.51280003195</ele>
        <time>2016-04-24T14:58:33Z</time>
      </trkpt>
      <trkpt lat="43.8012" lon="3.60264">
        <ele>383.71814931562</ele>
        <time>2016-04-24T14:58:38Z</time>
      </trkpt>
      <trkpt lat="43.80116" lon="3.60261">
        <ele>383.71814931562</ele>
        <time>2016-04-24T14:58:43Z</time>
      </trkpt>
      <trkpt lat="43.80112" lon="3.60256">
        <ele>383.01009356731</ele>
        <time>2016-04-24T14:58:48Z</time>
      </trkpt>
      <trkpt lat="43.80109" lon="3.60252">
        <ele>383.01009356731</ele>
        <time>2016-04-24T14:58:53Z</time>
      </trkpt>
      <trkpt lat="43.80105" lon="3.60249">
        <ele>382.35728778543</ele>
        <time>2016-04-24T14:58:58Z</time>
      </trkpt>
      <trkpt lat="43.80102" lon="3.60246">
        <ele>382.35728778543</ele>
        <time>2016-04-24T14:59:03Z</time>
      </trkpt>
      <trkpt lat="43.801" lon="3.60242">
        <ele>382.35728778543</ele>
        <time>2016-04-24T14:59:08Z</time>
      </trkpt>
      <trkpt lat="43.80095" lon="3.60232">
        <ele>381.74470799284</ele>
        <time>2016-04-24T14:59:13Z</time>
      </trkpt>
      <trkpt lat="43.80085" lon="3.60209">
        <ele>381.3454362309</ele>
        <time>2016-04-24T14:59:38Z</time>
      </trkpt>
      <trkpt lat="43.80073" lon="3.60193">
        <ele>381.03079692681</ele>
        <time>2016-04-24T15:00:17Z</time>
      </trkpt>
      <trkpt lat="43.8006" lon="3.60183">
        <ele>380.75317386403</ele>
        <time>2016-04-24T15:00:17Z</time>
      </trkpt>
      <trkpt lat="43.8005" lon="3.60163">
        <ele>380.9148894727</ele>
        <time>2016-04-24T15:00:55Z</time>
      </trkpt>
      <trkpt lat="43.80004" lon="3.60121">
        <ele>383.60221923294</ele>
        <time>2016-04-24T15:02:51Z</time>
      </trkpt>
      <trkpt lat="43.80003" lon="3.6012">
        <ele>383.60221923294</ele>
        <time>2016-04-24T15:02:53Z</time>
      </trkpt>
      <trkpt lat="43.79993" lon="3.60109">
        <ele>386.54729145643</ele>
        <time>2016-04-24T15:03:11Z</time>
      </trkpt>
      <trkpt lat="43.79992" lon="3.60108">
        <ele>386.54729145643</ele>
        <time>2016-04-24T15:03:13Z</time>
      </trkpt>
      <trkpt lat="43.79987" lon="3.60102">
        <ele>386.54729145643</ele>
        <time>2016-04-24T15:03:23Z</time>
      </trkpt>
      <trkpt lat="43.79972" lon="3.60092">
        <ele>390.01139804619</ele>
        <time>2016-04-24T15:03:50Z</time>
      </trkpt>
      <trkpt lat="43.7996" lon="3.60073">
        <ele>393.75950823153</ele>
        <time>2016-04-24T15:04:13Z</time>
      </trkpt>
      <trkpt lat="43.79954" lon="3.60039">
        <ele>398.20708126934</ele>
        <time>2016-04-24T15:05:24Z</time>
      </trkpt>
      <trkpt lat="43.79952" lon="3.60028">
        <ele>398.20708126934</ele>
        <time>2016-04-24T15:05:34Z</time>
      </trkpt>
      <trkpt lat="43.79943" lon="3.60016">
        <ele>403.14620871112</ele>
        <time>2016-04-24T15:05:57Z</time>
      </trkpt>
      <trkpt lat="43.79943" lon="3.60016">
        <ele>403.14620871112</ele>
        <time>2016-04-24T15:05:58Z</time>
      </trkpt>
      <trkpt lat="43.79938" lon="3.60007">
        <ele>403.14620871112</ele>
        <time>2016-04-24T15:06:25Z</time>
      </trkpt>
      <trkpt lat="43.79937" lon="3.6">
        <ele>408.12348463437</ele>
        <time>2016-04-24T15:06:25Z</time>
      </trkpt>
      <trkpt lat="43.79936" lon="3.59997">
        <ele>408.12348463437</ele>
        <time>2016-04-24T15:06:41Z</time>
      </trkpt>
      <trkpt lat="43.79934" lon="3.5999">
        <ele>408.12348463437</ele>
        <time>2016-04-24T15:06:41Z</time>
      </trkpt>
      <trkpt lat="43.79922" lon="3.59962">
        <ele>413.71311876369</ele>
        <time>2016-04-24T15:07:21Z</time>
      </trkpt>
      <trkpt lat="43.79922" lon="3.59961">
        <ele>413.71311876369</ele>
        <time>2016-04-24T15:07:27Z</time>
      </trkpt>
      <trkpt lat="43.79923" lon="3.59959">
        <ele>413.71311876369</ele>
        <time>2016-04-24T15:07:38Z</time>
      </trkpt>
      <trkpt lat="43.79901" lon="3.59964">
        <ele>419.46555355969</ele>
        <time>2016-04-24T15:08:32Z</time>
      </trkpt>
      <trkpt lat="43.79897" lon="3.5996">
        <ele>419.46555355969</ele>
        <time>2016-04-24T15:08:32Z</time>
      </trkpt>
      <trkpt lat="43.79869" lon="3.59936">
        <ele>425.46831512265</ele>
        <time>2016-04-24T15:09:36Z</time>
      </trkpt>
      <trkpt lat="43.79844" lon="3.59873">
        <ele>432.88279865488</ele>
        <time>2016-04-24T15:11:06Z</time>
      </trkpt>
      <trkpt lat="43.79844" lon="3.59867">
        <ele>432.88279865488</ele>
        <time>2016-04-24T15:11:06Z</time>
      </trkpt>
      <trkpt lat="43.79852" lon="3.59859">
        <ele>440.11527282736</ele>
        <time>2016-04-24T15:11:40Z</time>
      </trkpt>
      <trkpt lat="43.79855" lon="3.59838">
        <ele>446.75625930659</ele>
        <time>2016-04-24T15:11:51Z</time>
      </trkpt>
      <trkpt lat="43.79854" lon="3.59837">
        <ele>446.75625930659</ele>
        <time>2016-04-24T15:11:53Z</time>
      </trkpt>
      <trkpt lat="43.79853" lon="3.5983">
        <ele>446.75625930659</ele>
        <time>2016-04-24T15:11:58Z</time>
      </trkpt>
      <trkpt lat="43.7989" lon="3.59751">
        <ele>453.39384594702</ele>
        <time>2016-04-24T15:13:40Z</time>
      </trkpt>
      <trkpt lat="43.79893" lon="3.59746">
        <ele>453.39384594702</ele>
        <time>2016-04-24T15:13:40Z</time>
      </trkpt>
      <trkpt lat="43.79895" lon="3.59742">
        <ele>453.39384594702</ele>
        <time>2016-04-24T15:13:57Z</time>
      </trkpt>
      <trkpt lat="43.79896" lon="3.59735">
        <ele>459.83827703964</ele>
        <time>2016-04-24T15:14:12Z</time>
      </trkpt>
      <trkpt lat="43.79897" lon="3.5972">
        <ele>466.08755382123</ele>
        <time>2016-04-24T15:14:42Z</time>
      </trkpt>
      <trkpt lat="43.79896" lon="3.59717">
        <ele>466.08755382123</ele>
        <time>2016-04-24T15:14:44Z</time>
      </trkpt>
      <trkpt lat="43.7988" lon="3.59661">
        <ele>472.65953810189</ele>
        <time>2016-04-24T15:15:58Z</time>
      </trkpt>
      <trkpt lat="43.79882" lon="3.59644">
        <ele>478.79417309613</ele>
        <time>2016-04-24T15:16:25Z</time>
      </trkpt>
      <trkpt lat="43.79885" lon="3.5964">
        <ele>478.79417309613</ele>
        <time>2016-04-24T15:16:25Z</time>
      </trkpt>
      <trkpt lat="43.79872" lon="3.5963">
        <ele>484.5670638808</ele>
        <time>2016-04-24T15:17:54Z</time>
      </trkpt>
      <trkpt lat="43.79872" lon="3.5963">
        <ele>484.5670638808</ele>
        <time>2016-04-24T15:17:54Z</time>
      </trkpt>
      <trkpt lat="43.79864" lon="3.59624">
        <ele>490.15056710844</ele>
        <time>2016-04-24T15:19:05Z</time>
      </trkpt>
      <trkpt lat="43.79858" lon="3.59605">
        <ele>495.37387406184</ele>
        <time>2016-04-24T15:19:44Z</time>
      </trkpt>
      <trkpt lat="43.79855" lon="3.59594">
        <ele>495.37387406184</ele>
        <time>2016-04-24T15:19:53Z</time>
      </trkpt>
      <trkpt lat="43.79854" lon="3.59591">
        <ele>500.3827913634</ele>
        <time>2016-04-24T15:20:00Z</time>
      </trkpt>
      <trkpt lat="43.79848" lon="3.59584">
        <ele>500.3827913634</ele>
        <time>2016-04-24T15:20:24Z</time>
      </trkpt>
      <trkpt lat="43.79846" lon="3.59581">
        <ele>505.27020613977</ele>
        <time>2016-04-24T15:20:24Z</time>
      </trkpt>
      <trkpt lat="43.79843" lon="3.59567">
        <ele>509.83471995212</ele>
        <time>2016-04-24T15:20:42Z</time>
      </trkpt>
      <trkpt lat="43.79843" lon="3.59566">
        <ele>509.83471995212</ele>
        <time>2016-04-24T15:20:43Z</time>
      </trkpt>
      <trkpt lat="43.79832" lon="3.59537">
        <ele>514.78453849672</ele>
        <time>2016-04-24T15:22:00Z</time>
      </trkpt>
      <trkpt lat="43.7983" lon="3.59517">
        <ele>519.82403464681</ele>
        <time>2016-04-24T15:23:04Z</time>
      </trkpt>
      <trkpt lat="43.79825" lon="3.59503">
        <ele>524.80914555962</ele>
        <time>2016-04-24T15:23:24Z</time>
      </trkpt>
      <trkpt lat="43.79828" lon="3.59497">
        <ele>524.80914555962</ele>
        <time>2016-04-24T15:23:42Z</time>
      </trkpt>
      <trkpt lat="43.79826" lon="3.5949">
        <ele>529.98162453098</ele>
        <time>2016-04-24T15:24:01Z</time>
      </trkpt>
      <trkpt lat="43.79824" lon="3.59487">
        <ele>529.98162453098</ele>
        <time>2016-04-24T15:24:08Z</time>
      </trkpt>
      <trkpt lat="43.79821" lon="3.5948">
        <ele>534.88800102354</ele>
        <time>2016-04-24T15:24:26Z</time>
      </trkpt>
      <trkpt lat="43.79819" lon="3.59476">
        <ele>534.88800102354</ele>
        <time>2016-04-24T15:24:26Z</time>
      </trkpt>
      <trkpt lat="43.79814" lon="3.59466">
        <ele>539.90185016143</ele>
        <time>2016-04-24T15:25:00Z</time>
      </trkpt>
      <trkpt lat="43.79836" lon="3.59466">
        <ele>545.18202560538</ele>
        <time>2016-04-24T15:26:09Z</time>
      </trkpt>
      <trkpt lat="43.79834" lon="3.59468">
        <ele>545.18202560538</ele>
        <time>2016-04-24T15:26:13Z</time>
      </trkpt>
      <trkpt lat="43.79815" lon="3.59465">
        <ele>549.86654375977</ele>
        <time>2016-04-24T15:27:01Z</time>
      </trkpt>
      <trkpt lat="43.79777" lon="3.59427">
        <ele>552.74083480807</ele>
        <time>2016-04-24T15:28:06Z</time>
      </trkpt>
      <trkpt lat="43.79773" lon="3.59424">
        <ele>552.74083480807</ele>
        <time>2016-04-24T15:28:06Z</time>
      </trkpt>
      <trkpt lat="43.79772" lon="3.59421">
        <ele>552.74083480807</ele>
        <time>2016-04-24T15:28:08Z</time>
      </trkpt>
      <trkpt lat="43.79767" lon="3.59414">
        <ele>554.7601569709</ele>
        <time>2016-04-24T15:28:21Z</time>
      </trkpt>
      <trkpt lat="43.79764" lon="3.59411">
        <ele>554.7601569709</ele>
        <time>2016-04-24T15:28:23Z</time>
      </trkpt>
      <trkpt lat="43.79755" lon="3.59394">
        <ele>556.00527318836</ele>
        <time>2016-04-24T15:28:46Z</time>
      </trkpt>
      <trkpt lat="43.79753" lon="3.59387">
        <ele>556.00527318836</ele>
        <time>2016-04-24T15:28:46Z</time>
      </trkpt>
      <trkpt lat="43.79743" lon="3.5936">
        <ele>556.66874453438</ele>
        <time>2016-04-24T15:29:12Z</time>
      </trkpt>
      <trkpt lat="43.79743" lon="3.59358">
        <ele>556.66874453438</ele>
        <time>2016-04-24T15:29:13Z</time>
      </trkpt>
      <trkpt lat="43.79733" lon="3.59296">
        <ele>558.05492030723</ele>
        <time>2016-04-24T15:30:17Z</time>
      </trkpt>
      <trkpt lat="43.79715" lon="3.59273">
        <ele>559.38176903617</ele>
        <time>2016-04-24T15:31:12Z</time>
      </trkpt>
      <trkpt lat="43.79692" lon="3.59249">
        <ele>561.91377285235</ele>
        <time>2016-04-24T15:32:52Z</time>
      </trkpt>
      <trkpt lat="43.79697" lon="3.59261">
        <ele>564.23969028516</ele>
        <time>2016-04-24T15:33:43Z</time>
      </trkpt>
      <trkpt lat="43.79694" lon="3.5925">
        <ele>564.23969028516</ele>
        <time>2016-04-24T15:42:46Z</time>
      </trkpt>
      <trkpt lat="43.79691" lon="3.59261">
        <ele>565.94612680664</ele>
        <time>2016-04-24T15:44:48Z</time>
      </trkpt>
      <trkpt lat="43.79693" lon="3.59252">
        <ele>565.94612680664</ele>
        <time>2016-04-24T15:45:20Z</time>
      </trkpt>
      <trkpt lat="43.79695" lon="3.59243">
        <ele>567.54537018388</ele>
        <time>2016-04-24T15:45:42Z</time>
      </trkpt>
      <trkpt lat="43.79697" lon="3.59237">
        <ele>567.54537018388</ele>
        <time>2016-04-24T15:45:53Z</time>
      </trkpt>
      <trkpt lat="43.79704" lon="3.59238">
        <ele>568.84953026322</ele>
        <time>2016-04-24T15:46:01Z</time>
      </trkpt>
      <trkpt lat="43.79706" lon="3.5924">
        <ele>568.84953026322</ele>
        <time>2016-04-24T15:46:09Z</time>
      </trkpt>
      <trkpt lat="43.79724" lon="3.59257">
        <ele>569.771855437</ele>
        <time>2016-04-24T15:46:45Z</time>
      </trkpt>
      <trkpt lat="43.79756" lon="3.59319">
        <ele>570.3627552098</ele>
        <time>2016-04-24T15:47:32Z</time>
      </trkpt>
      <trkpt lat="43.79773" lon="3.59412">
        <ele>568.83964265608</ele>
        <time>2016-04-24T15:48:14Z</time>
      </trkpt>
      <trkpt lat="43.79796" lon="3.59438">
        <ele>566.79926754155</ele>
        <time>2016-04-24T15:48:48Z</time>
      </trkpt>
      <trkpt lat="43.79802" lon="3.59443">
        <ele>566.79926754155</ele>
        <time>2016-04-24T15:48:53Z</time>
      </trkpt>
      <trkpt lat="43.79806" lon="3.59448">
        <ele>564.52633280922</ele>
        <time>2016-04-24T15:49:04Z</time>
      </trkpt>
      <trkpt lat="43.7982" lon="3.59469">
        <ele>562.19869516945</ele>
        <time>2016-04-24T15:49:33Z</time>
      </trkpt>
      <trkpt lat="43.79832" lon="3.59537">
        <ele>558.36709389584</ele>
        <time>2016-04-24T15:50:25Z</time>
      </trkpt>
      <trkpt lat="43.79846" lon="3.59566">
        <ele>553.71030127344</ele>
        <time>2016-04-24T15:50:53Z</time>
      </trkpt>
      <trkpt lat="43.79851" lon="3.59584">
        <ele>548.47019242361</ele>
        <time>2016-04-24T15:51:13Z</time>
      </trkpt>
      <trkpt lat="43.79877" lon="3.59633">
        <ele>541.44551073467</ele>
        <time>2016-04-24T15:52:55Z</time>
      </trkpt>
      <trkpt lat="43.79884" lon="3.59677">
        <ele>534.84245508114</ele>
        <time>2016-04-24T15:52:58Z</time>
      </trkpt>
      <trkpt lat="43.7989" lon="3.5969">
        <ele>526.27935591363</ele>
        <time>2016-04-24T15:53:03Z</time>
      </trkpt>
      <trkpt lat="43.79871" lon="3.59785">
        <ele>515.81707740865</ele>
        <time>2016-04-24T15:54:39Z</time>
      </trkpt>
      <trkpt lat="43.79854" lon="3.59838">
        <ele>506.05317040625</ele>
        <time>2016-04-24T15:56:01Z</time>
      </trkpt>
      <trkpt lat="43.79856" lon="3.5988">
        <ele>496.63930221843</ele>
        <time>2016-04-24T15:56:06Z</time>
      </trkpt>
      <trkpt lat="43.79868" lon="3.59925">
        <ele>487.51050244077</ele>
        <time>2016-04-24T15:56:38Z</time>
      </trkpt>
      <trkpt lat="43.79882" lon="3.59942">
        <ele>478.67713420348</ele>
        <time>2016-04-24T15:57:00Z</time>
      </trkpt>
      <trkpt lat="43.79883" lon="3.59944">
        <ele>478.67713420348</ele>
        <time>2016-04-24T15:57:05Z</time>
      </trkpt>
      <trkpt lat="43.79918" lon="3.5996">
        <ele>469.6140215823</ele>
        <time>2016-04-24T15:57:47Z</time>
      </trkpt>
      <trkpt lat="43.79922" lon="3.59962">
        <ele>469.6140215823</ele>
        <time>2016-04-24T15:57:47Z</time>
      </trkpt>
      <trkpt lat="43.79934" lon="3.59983">
        <ele>460.74233944568</ele>
        <time>2016-04-24T15:58:18Z</time>
      </trkpt>
      <trkpt lat="43.79955" lon="3.60034">
        <ele>451.26927088942</ele>
        <time>2016-04-24T15:59:14Z</time>
      </trkpt>
      <trkpt lat="43.79959" lon="3.60046">
        <ele>442.50747543191</ele>
        <time>2016-04-24T15:59:24Z</time>
      </trkpt>
      <trkpt lat="43.7996" lon="3.60051">
        <ele>442.50747543191</ele>
        <time>2016-04-24T15:59:28Z</time>
      </trkpt>
      <trkpt lat="43.79994" lon="3.60104">
        <ele>434.41657398952</ele>
        <time>2016-04-24T16:01:03Z</time>
      </trkpt>
      <trkpt lat="43.80036" lon="3.6014">
        <ele>427.18698780458</ele>
        <time>2016-04-24T16:01:13Z</time>
      </trkpt>
      <trkpt lat="43.80046" lon="3.60152">
        <ele>416.1353128048</ele>
        <time>2016-04-24T16:02:00Z</time>
      </trkpt>
      <trkpt lat="43.80069" lon="3.60187">
        <ele>404.95901441353</ele>
        <time>2016-04-24T16:02:12Z</time>
      </trkpt>
      <trkpt lat="43.80098" lon="3.60217">
        <ele>393.40856142425</ele>
        <time>2016-04-24T16:02:47Z</time>
      </trkpt>
      <trkpt lat="43.801" lon="3.60218">
        <ele>393.40856142425</ele>
        <time>2016-04-24T16:02:55Z</time>
      </trkpt>
      <trkpt lat="43.80104" lon="3.60229">
        <ele>382.82370183104</ele>
        <time>2016-04-24T16:02:56Z</time>
      </trkpt>
      <trkpt lat="43.80107" lon="3.6023">
        <ele>382.82370183104</ele>
        <time>2016-04-24T16:02:58Z</time>
      </trkpt>
      <trkpt lat="43.80108" lon="3.60276">
        <ele>373.30365298116</ele>
        <time>2016-04-24T16:03:53Z</time>
      </trkpt>
      <trkpt lat="43.80102" lon="3.60282">
        <ele>373.30365298116</ele>
        <time>2016-04-24T16:04:23Z</time>
      </trkpt>
      <trkpt lat="43.8008" lon="3.60297">
        <ele>365.70021506594</ele>
        <time>2016-04-24T16:04:50Z</time>
      </trkpt>
      <trkpt lat="43.8006" lon="3.60297">
        <ele>358.87963595305</ele>
        <time>2016-04-24T16:05:10Z</time>
      </trkpt>
      <trkpt lat="43.80058" lon="3.60297">
        <ele>358.87963595305</ele>
        <time>2016-04-24T16:05:13Z</time>
      </trkpt>
      <trkpt lat="43.80044" lon="3.60332">
        <ele>352.79712437637</ele>
        <time>2016-04-24T16:05:54Z</time>
      </trkpt>
      <trkpt lat="43.8004" lon="3.60341">
        <ele>352.79712437637</ele>
        <time>2016-04-24T16:05:59Z</time>
      </trkpt>
      <trkpt lat="43.79998" lon="3.60407">
        <ele>347.12000898886</ele>
        <time>2016-04-24T16:07:01Z</time>
      </trkpt>
      <trkpt lat="43.79979" lon="3.60407">
        <ele>341.95599979293</ele>
        <time>2016-04-24T16:07:18Z</time>
      </trkpt>
      <trkpt lat="43.79941" lon="3.60419">
        <ele>336.84061978615</ele>
        <time>2016-04-24T16:07:56Z</time>
      </trkpt>
      <trkpt lat="43.79924" lon="3.60423">
        <ele>332.27933981506</ele>
        <time>2016-04-24T16:08:25Z</time>
      </trkpt>
      <trkpt lat="43.79898" lon="3.60427">
        <ele>327.94561975842</ele>
        <time>2016-04-24T16:08:35Z</time>
      </trkpt>
      <trkpt lat="43.79894" lon="3.60429">
        <ele>327.94561975842</ele>
        <time>2016-04-24T16:08:38Z</time>
      </trkpt>
      <trkpt lat="43.79842" lon="3.60444">
        <ele>323.50677858383</ele>
        <time>2016-04-24T16:09:24Z</time>
      </trkpt>
      <trkpt lat="43.79717" lon="3.60485">
        <ele>317.94810009916</ele>
        <time>2016-04-24T16:11:40Z</time>
      </trkpt>
      <trkpt lat="43.79709" lon="3.60493">
        <ele>313.15654827352</ele>
        <time>2016-04-24T16:11:40Z</time>
      </trkpt>
      <trkpt lat="43.79663" lon="3.60557">
        <ele>308.78816844994</ele>
        <time>2016-04-24T16:12:33Z</time>
      </trkpt>
      <trkpt lat="43.79662" lon="3.60559">
        <ele>308.78816844994</ele>
        <time>2016-04-24T16:12:38Z</time>
      </trkpt>
      <trkpt lat="43.7966" lon="3.60565">
        <ele>308.78816844994</ele>
        <time>2016-04-24T16:12:43Z</time>
      </trkpt>
      <trkpt lat="43.79658" lon="3.60573">
        <ele>305.22873178393</ele>
        <time>2016-04-24T16:12:48Z</time>
      </trkpt>
      <trkpt lat="43.79654" lon="3.60581">
        <ele>305.22873178393</ele>
        <time>2016-04-24T16:12:53Z</time>
      </trkpt>
      <trkpt lat="43.79651" lon="3.60587">
        <ele>302.3141452752</ele>
        <time>2016-04-24T16:12:58Z</time>
      </trkpt>
      <trkpt lat="43.79648" lon="3.60591">
        <ele>302.3141452752</ele>
        <time>2016-04-24T16:13:03Z</time>
      </trkpt>
      <trkpt lat="43.79649" lon="3.60596">
        <ele>302.3141452752</ele>
        <time>2016-04-24T16:13:08Z</time>
      </trkpt>
      <trkpt lat="43.7965" lon="3.60603">
        <ele>299.9477953701</ele>
        <time>2016-04-24T16:13:13Z</time>
      </trkpt>
      <trkpt lat="43.79649" lon="3.60614">
        <ele>299.9477953701</ele>
        <time>2016-04-24T16:13:18Z</time>
      </trkpt>
      <trkpt lat="43.79652" lon="3.60623">
        <ele>298.26884448093</ele>
        <time>2016-04-24T16:13:23Z</time>
      </trkpt>
      <trkpt lat="43.79654" lon="3.60631">
        <ele>298.26884448093</ele>
        <time>2016-04-24T16:13:28Z</time>
      </trkpt>
      <trkpt lat="43.79656" lon="3.6064">
        <ele>297.28870591774</ele>
        <time>2016-04-24T16:13:33Z</time>
      </trkpt>
      <trkpt lat="43.7966" lon="3.60647">
        <ele>297.28870591774</ele>
        <time>2016-04-24T16:13:38Z</time>
      </trkpt>
      <trkpt lat="43.79668" lon="3.60662">
        <ele>296.81398379623</ele>
        <time>2016-04-24T16:13:55Z</time>
      </trkpt>
      <trkpt lat="43.7967" lon="3.60668">
        <ele>296.81398379623</ele>
        <time>2016-04-24T16:13:55Z</time>
      </trkpt>
      <trkpt lat="43.79673" lon="3.60672">
        <ele>296.81398379623</ele>
        <time>2016-04-24T16:14:01Z</time>
      </trkpt>
      <trkpt lat="43.79683" lon="3.60688">
        <ele>296.92327259933</ele>
        <time>2016-04-24T16:14:13Z</time>
      </trkpt>
      <trkpt lat="43.79689" lon="3.6069">
        <ele>296.92327259933</ele>
        <time>2016-04-24T16:14:18Z</time>
      </trkpt>
      <trkpt lat="43.79696" lon="3.60692">
        <ele>297.60114723413</ele>
        <time>2016-04-24T16:14:23Z</time>
      </trkpt>
      <trkpt lat="43.79718" lon="3.607">
        <ele>298.90369384372</ele>
        <time>2016-04-24T16:14:47Z</time>
      </trkpt>
      <trkpt lat="43.79719" lon="3.607">
        <ele>298.90369384372</ele>
        <time>2016-04-24T16:14:48Z</time>
      </trkpt>
      <trkpt lat="43.79734" lon="3.60708">
        <ele>300.73699173884</ele>
        <time>2016-04-24T16:15:07Z</time>
      </trkpt>
      <trkpt lat="43.79738" lon="3.60713">
        <ele>300.73699173884</ele>
        <time>2016-04-24T16:15:09Z</time>
      </trkpt>
      <trkpt lat="43.79838" lon="3.60802">
        <ele>303.80517969101</ele>
        <time>2016-04-24T16:16:54Z</time>
      </trkpt>
      <trkpt lat="43.79856" lon="3.60814">
        <ele>307.1576715998</ele>
        <time>2016-04-24T16:17:07Z</time>
      </trkpt>
      <trkpt lat="43.79859" lon="3.60816">
        <ele>307.1576715998</ele>
        <time>2016-04-24T16:17:07Z</time>
      </trkpt>
      <trkpt lat="43.79866" lon="3.60822">
        <ele>310.76332973968</ele>
        <time>2016-04-24T16:17:13Z</time>
      </trkpt>
      <trkpt lat="43.7987" lon="3.60825">
        <ele>310.76332973968</ele>
        <time>2016-04-24T16:17:18Z</time>
      </trkpt>
      <trkpt lat="43.7987" lon="3.60825">
        <ele>310.76332973968</ele>
        <time>2016-04-24T16:17:23Z</time>
      </trkpt>
      <trkpt lat="43.79874" lon="3.60831">
        <ele>314.69369301559</ele>
        <time>2016-04-24T16:17:28Z</time>
      </trkpt>
      <trkpt lat="43.79878" lon="3.60838">
        <ele>314.69369301559</ele>
        <time>2016-04-24T16:17:33Z</time>
      </trkpt>
      <trkpt lat="43.79881" lon="3.60844">
        <ele>318.65413700893</ele>
        <time>2016-04-24T16:17:38Z</time>
      </trkpt>
      <trkpt lat="43.79886" lon="3.6085">
        <ele>318.65413700893</ele>
        <time>2016-04-24T16:17:43Z</time>
      </trkpt>
      <trkpt lat="43.79891" lon="3.60855">
        <ele>322.44398711164</ele>
        <time>2016-04-24T16:17:48Z</time>
      </trkpt>
      <trkpt lat="43.79895" lon="3.60859">
        <ele>322.44398711164</ele>
        <time>2016-04-24T16:17:53Z</time>
      </trkpt>
      <trkpt lat="43.799" lon="3.60863">
        <ele>326.19521949493</ele>
        <time>2016-04-24T16:17:58Z</time>
      </trkpt>
      <trkpt lat="43.79904" lon="3.60866">
        <ele>326.19521949493</ele>
        <time>2016-04-24T16:18:03Z</time>
      </trkpt>
      <trkpt lat="43.79926" lon="3.60906">
        <ele>330.26123400198</ele>
        <time>2016-04-24T16:18:30Z</time>
      </trkpt>
      <trkpt lat="43.79938" lon="3.60923">
        <ele>334.19086007284</ele>
        <time>2016-04-24T16:19:10Z</time>
      </trkpt>
      <trkpt lat="43.79964" lon="3.60958">
        <ele>338.40280795643</ele>
        <time>2016-04-24T16:19:13Z</time>
      </trkpt>
      <trkpt lat="43.79969" lon="3.60964">
        <ele>338.40280795643</ele>
        <time>2016-04-24T16:19:18Z</time>
      </trkpt>
      <trkpt lat="43.79973" lon="3.60969">
        <ele>342.52099256189</ele>
        <time>2016-04-24T16:19:23Z</time>
      </trkpt>
      <trkpt lat="43.79976" lon="3.60974">
        <ele>342.52099256189</ele>
        <time>2016-04-24T16:19:28Z</time>
      </trkpt>
      <trkpt lat="43.79979" lon="3.60981">
        <ele>346.48601469682</ele>
        <time>2016-04-24T16:19:33Z</time>
      </trkpt>
      <trkpt lat="43.79995" lon="3.61016">
        <ele>349.79712154213</ele>
        <time>2016-04-24T16:19:58Z</time>
      </trkpt>
      <trkpt lat="43.80024" lon="3.61109">
        <ele>352.85746385882</ele>
        <time>2016-04-24T16:21:28Z</time>
      </trkpt>
      <trkpt lat="43.80012" lon="3.61164">
        <ele>354.93225391387</ele>
        <time>2016-04-24T16:21:33Z</time>
      </trkpt>
      <trkpt lat="43.80009" lon="3.6117">
        <ele>354.93225391387</ele>
        <time>2016-04-24T16:21:38Z</time>
      </trkpt>
      <trkpt lat="43.80006" lon="3.61177">
        <ele>356.74195882099</ele>
        <time>2016-04-24T16:21:43Z</time>
      </trkpt>
      <trkpt lat="43.80003" lon="3.61183">
        <ele>356.74195882099</ele>
        <time>2016-04-24T16:21:48Z</time>
      </trkpt>
      <trkpt lat="43.80001" lon="3.61188">
        <ele>358.27817532387</ele>
        <time>2016-04-24T16:21:53Z</time>
      </trkpt>
      <trkpt lat="43.79997" lon="3.61194">
        <ele>358.27817532387</ele>
        <time>2016-04-24T16:21:58Z</time>
      </trkpt>
      <trkpt lat="43.79993" lon="3.61201">
        <ele>359.57774500147</ele>
        <time>2016-04-24T16:22:03Z</time>
      </trkpt>
      <trkpt lat="43.7999" lon="3.61204">
        <ele>359.57774500147</ele>
        <time>2016-04-24T16:22:08Z</time>
      </trkpt>
      <trkpt lat="43.79986" lon="3.61208">
        <ele>360.58961597531</ele>
        <time>2016-04-24T16:22:13Z</time>
      </trkpt>
      <trkpt lat="43.7994" lon="3.61247">
        <ele>361.16701683739</ele>
        <time>2016-04-24T16:23:07Z</time>
      </trkpt>
      <trkpt lat="43.79932" lon="3.61256">
        <ele>361.65132690929</ele>
        <time>2016-04-24T16:23:07Z</time>
      </trkpt>
      <trkpt lat="43.7981" lon="3.61323">
        <ele>361.65352692453</ele>
        <time>2016-04-24T16:24:58Z</time>
      </trkpt>
      <trkpt lat="43.79808" lon="3.6132">
        <ele>361.65352692453</ele>
        <time>2016-04-24T16:25:08Z</time>
      </trkpt>
      <trkpt lat="43.79804" lon="3.61322">
        <ele>361.65352692453</ele>
        <time>2016-04-24T16:25:23Z</time>
      </trkpt>
      <trkpt lat="43.79798" lon="3.61327">
        <ele>362.01118998372</ele>
        <time>2016-04-24T16:25:28Z</time>
      </trkpt>
      <trkpt lat="43.79793" lon="3.61331">
        <ele>362.01118998372</ele>
        <time>2016-04-24T16:25:33Z</time>
      </trkpt>
      <trkpt lat="43.79785" lon="3.61328">
        <ele>362.44786947458</ele>
        <time>2016-04-24T16:25:38Z</time>
      </trkpt>
      <trkpt lat="43.79778" lon="3.61327">
        <ele>362.44786947458</ele>
        <time>2016-04-24T16:25:43Z</time>
      </trkpt>
      <trkpt lat="43.7977" lon="3.61326">
        <ele>363.12562062777</ele>
        <time>2016-04-24T16:25:48Z</time>
      </trkpt>
      <trkpt lat="43.79763" lon="3.61325">
        <ele>363.12562062777</ele>
        <time>2016-04-24T16:25:53Z</time>
      </trkpt>
      <trkpt lat="43.79757" lon="3.61323">
        <ele>363.97822270372</ele>
        <time>2016-04-24T16:25:58Z</time>
      </trkpt>
      <trkpt lat="43.79751" lon="3.6132">
        <ele>363.97822270372</ele>
        <time>2016-04-24T16:26:03Z</time>
      </trkpt>
      <trkpt lat="43.79745" lon="3.61319">
        <ele>364.84340237518</ele>
        <time>2016-04-24T16:26:08Z</time>
      </trkpt>
      <trkpt lat="43.79738" lon="3.61317">
        <ele>364.84340237518</ele>
        <time>2016-04-24T16:26:13Z</time>
      </trkpt>
      <trkpt lat="43.7973" lon="3.61316">
        <ele>365.74413700859</ele>
        <time>2016-04-24T16:26:18Z</time>
      </trkpt>
      <trkpt lat="43.79723" lon="3.61315">
        <ele>365.74413700859</ele>
        <time>2016-04-24T16:26:23Z</time>
      </trkpt>
      <trkpt lat="43.79716" lon="3.61315">
        <ele>366.75967483927</ele>
        <time>2016-04-24T16:26:28Z</time>
      </trkpt>
      <trkpt lat="43.79713" lon="3.61319">
        <ele>366.75967483927</ele>
        <time>2016-04-24T16:26:33Z</time>
      </trkpt>
      <trkpt lat="43.7971" lon="3.61324">
        <ele>367.66088350172</ele>
        <time>2016-04-24T16:26:38Z</time>
      </trkpt>
      <trkpt lat="43.79707" lon="3.61333">
        <ele>367.66088350172</ele>
        <time>2016-04-24T16:26:43Z</time>
      </trkpt>
      <trkpt lat="43.79705" lon="3.61344">
        <ele>368.3226287051</ele>
        <time>2016-04-24T16:26:48Z</time>
      </trkpt>
      <trkpt lat="43.79704" lon="3.61348">
        <ele>368.3226287051</ele>
        <time>2016-04-24T16:26:53Z</time>
      </trkpt>
      <trkpt lat="43.79701" lon="3.61357">
        <ele>368.91822336225</ele>
        <time>2016-04-24T16:26:58Z</time>
      </trkpt>
      <trkpt lat="43.797" lon="3.61365">
        <ele>368.91822336225</ele>
        <time>2016-04-24T16:27:03Z</time>
      </trkpt>
      <trkpt lat="43.79703" lon="3.61369">
        <ele>369.33496549388</ele>
        <time>2016-04-24T16:27:08Z</time>
      </trkpt>
      <trkpt lat="43.79698" lon="3.61379">
        <ele>369.33496549388</ele>
        <time>2016-04-24T16:27:13Z</time>
      </trkpt>
      <trkpt lat="43.79695" lon="3.61391">
        <ele>369.51248980483</ele>
        <time>2016-04-24T16:27:18Z</time>
      </trkpt>
      <trkpt lat="43.79691" lon="3.61398">
        <ele>369.51248980483</ele>
        <time>2016-04-24T16:27:23Z</time>
      </trkpt>
      <trkpt lat="43.79687" lon="3.61406">
        <ele>369.51112741355</ele>
        <time>2016-04-24T16:27:28Z</time>
      </trkpt>
      <trkpt lat="43.79685" lon="3.6141">
        <ele>369.51112741355</ele>
        <time>2016-04-24T16:27:33Z</time>
      </trkpt>
      <trkpt lat="43.79681" lon="3.61416">
        <ele>369.35873779111</ele>
        <time>2016-04-24T16:27:38Z</time>
      </trkpt>
      <trkpt lat="43.79675" lon="3.61421">
        <ele>369.35873779111</ele>
        <time>2016-04-24T16:27:43Z</time>
      </trkpt>
      <trkpt lat="43.79671" lon="3.61439">
        <ele>369.02417153402</ele>
        <time>2016-04-24T16:27:58Z</time>
      </trkpt>
      <trkpt lat="43.7967" lon="3.61463">
        <ele>368.36402495717</ele>
        <time>2016-04-24T16:28:13Z</time>
      </trkpt>
      <trkpt lat="43.79669" lon="3.61473">
        <ele>368.36402495717</ele>
        <time>2016-04-24T16:28:18Z</time>
      </trkpt>
      <trkpt lat="43.79663" lon="3.61491">
        <ele>367.40507582508</ele>
        <time>2016-04-24T16:28:28Z</time>
      </trkpt>
      <trkpt lat="43.7966" lon="3.615">
        <ele>367.40507582508</ele>
        <time>2016-04-24T16:28:33Z</time>
      </trkpt>
      <trkpt lat="43.7963" lon="3.6153">
        <ele>365.8705257052</ele>
        <time>2016-04-24T16:29:03Z</time>
      </trkpt>
      <trkpt lat="43.79614" lon="3.61546">
        <ele>364.12536182034</ele>
        <time>2016-04-24T16:29:19Z</time>
      </trkpt>
      <trkpt lat="43.79609" lon="3.61549">
        <ele>364.12536182034</ele>
        <time>2016-04-24T16:29:23Z</time>
      </trkpt>
      <trkpt lat="43.79597" lon="3.61563">
        <ele>362.23467087026</ele>
        <time>2016-04-24T16:29:33Z</time>
      </trkpt>
      <trkpt lat="43.79593" lon="3.61571">
        <ele>362.23467087026</ele>
        <time>2016-04-24T16:29:38Z</time>
      </trkpt>
      <trkpt lat="43.7959" lon="3.61578">
        <ele>360.34573657134</ele>
        <time>2016-04-24T16:29:43Z</time>
      </trkpt>
      <trkpt lat="43.79588" lon="3.61586">
        <ele>360.34573657134</ele>
        <time>2016-04-24T16:29:48Z</time>
      </trkpt>
      <trkpt lat="43.79585" lon="3.61593">
        <ele>358.4365713613</ele>
        <time>2016-04-24T16:29:53Z</time>
      </trkpt>
      <trkpt lat="43.79583" lon="3.61601">
        <ele>358.4365713613</ele>
        <time>2016-04-24T16:29:58Z</time>
      </trkpt>
      <trkpt lat="43.79579" lon="3.61607">
        <ele>356.4292636088</ele>
        <time>2016-04-24T16:30:03Z</time>
      </trkpt>
      <trkpt lat="43.79575" lon="3.61613">
        <ele>356.4292636088</ele>
        <time>2016-04-24T16:30:08Z</time>
      </trkpt>
      <trkpt lat="43.79571" lon="3.6162">
        <ele>354.38162345089</ele>
        <time>2016-04-24T16:30:13Z</time>
      </trkpt>
      <trkpt lat="43.79567" lon="3.61626">
        <ele>354.38162345089</ele>
        <time>2016-04-24T16:30:18Z</time>
      </trkpt>
      <trkpt lat="43.79564" lon="3.61632">
        <ele>352.41938243829</ele>
        <time>2016-04-24T16:30:23Z</time>
      </trkpt>
      <trkpt lat="43.79566" lon="3.61639">
        <ele>352.41938243829</ele>
        <time>2016-04-24T16:30:28Z</time>
      </trkpt>
      <trkpt lat="43.79571" lon="3.61646">
        <ele>350.67318520637</ele>
        <time>2016-04-24T16:30:33Z</time>
      </trkpt>
      <trkpt lat="43.79577" lon="3.61649">
        <ele>350.67318520637</ele>
        <time>2016-04-24T16:30:38Z</time>
      </trkpt>
      <trkpt lat="43.79584" lon="3.61653">
        <ele>348.97520899155</ele>
        <time>2016-04-24T16:30:43Z</time>
      </trkpt>
      <trkpt lat="43.79591" lon="3.61655">
        <ele>348.97520899155</ele>
        <time>2016-04-24T16:30:48Z</time>
      </trkpt>
      <trkpt lat="43.79604" lon="3.61662">
        <ele>347.60209868393</ele>
        <time>2016-04-24T16:31:05Z</time>
      </trkpt>
      <trkpt lat="43.79623" lon="3.61675">
        <ele>346.65067110396</ele>
        <time>2016-04-24T16:31:19Z</time>
      </trkpt>
      <trkpt lat="43.7966" lon="3.61721">
        <ele>346.43994424171</ele>
        <time>2016-04-24T16:32:03Z</time>
      </trkpt>
      <trkpt lat="43.79662" lon="3.61729">
        <ele>346.43994424171</ele>
        <time>2016-04-24T16:32:08Z</time>
      </trkpt>
      <trkpt lat="43.79663" lon="3.61735">
        <ele>346.28338000674</ele>
        <time>2016-04-24T16:32:13Z</time>
      </trkpt>
      <trkpt lat="43.79663" lon="3.61743">
        <ele>346.28338000674</ele>
        <time>2016-04-24T16:32:18Z</time>
      </trkpt>
      <trkpt lat="43.79664" lon="3.61749">
        <ele>345.99137587788</ele>
        <time>2016-04-24T16:32:23Z</time>
      </trkpt>
      <trkpt lat="43.79664" lon="3.61755">
        <ele>345.99137587788</ele>
        <time>2016-04-24T16:32:28Z</time>
      </trkpt>
      <trkpt lat="43.79664" lon="3.61763">
        <ele>345.56148077787</ele>
        <time>2016-04-24T16:32:33Z</time>
      </trkpt>
      <trkpt lat="43.79666" lon="3.6177">
        <ele>345.56148077787</ele>
        <time>2016-04-24T16:32:38Z</time>
      </trkpt>
      <trkpt lat="43.7969" lon="3.61821">
        <ele>344.429686478</ele>
        <time>2016-04-24T16:33:22Z</time>
      </trkpt>
      <trkpt lat="43.79701" lon="3.61845">
        <ele>343.06966006941</ele>
        <time>2016-04-24T16:33:38Z</time>
      </trkpt>
      <trkpt lat="43.79702" lon="3.61851">
        <ele>343.06966006941</ele>
        <time>2016-04-24T16:33:43Z</time>
      </trkpt>
      <trkpt lat="43.79735" lon="3.619">
        <ele>340.63822610263</ele>
        <time>2016-04-24T16:34:33Z</time>
      </trkpt>
      <trkpt lat="43.79736" lon="3.61912">
        <ele>338.15843690016</ele>
        <time>2016-04-24T16:34:33Z</time>
      </trkpt>
      <trkpt lat="43.79728" lon="3.61946">
        <ele>335.38208662539</ele>
        <time>2016-04-24T16:34:51Z</time>
      </trkpt>
      <trkpt lat="43.79726" lon="3.61954">
        <ele>335.38208662539</ele>
        <time>2016-04-24T16:34:53Z</time>
      </trkpt>
      <trkpt lat="43.79725" lon="3.61965">
        <ele>332.49782492633</ele>
        <time>2016-04-24T16:34:58Z</time>
      </trkpt>
      <trkpt lat="43.79728" lon="3.61974">
        <ele>332.49782492633</ele>
        <time>2016-04-24T16:35:03Z</time>
      </trkpt>
      <trkpt lat="43.79735" lon="3.61978">
        <ele>329.60854413549</ele>
        <time>2016-04-24T16:35:08Z</time>
      </trkpt>
      <trkpt lat="43.79741" lon="3.6198">
        <ele>329.60854413549</ele>
        <time>2016-04-24T16:35:13Z</time>
      </trkpt>
      <trkpt lat="43.79746" lon="3.6198">
        <ele>326.67973196493</ele>
        <time>2016-04-24T16:35:18Z</time>
      </trkpt>
      <trkpt lat="43.7975" lon="3.61982">
        <ele>326.67973196493</ele>
        <time>2016-04-24T16:35:23Z</time>
      </trkpt>
      <trkpt lat="43.79754" lon="3.61985">
        <ele>326.67973196493</ele>
        <time>2016-04-24T16:35:28Z</time>
      </trkpt>
      <trkpt lat="43.79756" lon="3.61989">
        <ele>323.52082633749</ele>
        <time>2016-04-24T16:35:33Z</time>
      </trkpt>
      <trkpt lat="43.79765" lon="3.61997">
        <ele>320.18630072614</ele>
        <time>2016-04-24T16:35:54Z</time>
      </trkpt>
      <trkpt lat="43.79779" lon="3.62001">
        <ele>316.48193170038</ele>
        <time>2016-04-24T16:36:11Z</time>
      </trkpt>
      <trkpt lat="43.79782" lon="3.62004">
        <ele>316.48193170038</ele>
        <time>2016-04-24T16:36:11Z</time>
      </trkpt>
      <trkpt lat="43.79792" lon="3.6202">
        <ele>312.41593335164</ele>
        <time>2016-04-24T16:36:45Z</time>
      </trkpt>
      <trkpt lat="43.79806" lon="3.62045">
        <ele>308.14081626762</ele>
        <time>2016-04-24T16:37:25Z</time>
      </trkpt>
      <trkpt lat="43.79814" lon="3.62053">
        <ele>304.07204620343</ele>
        <time>2016-04-24T16:37:29Z</time>
      </trkpt>
      <trkpt lat="43.79813" lon="3.62062">
        <ele>304.07204620343</ele>
        <time>2016-04-24T16:37:33Z</time>
      </trkpt>
      <trkpt lat="43.79814" lon="3.62065">
        <ele>304.07204620343</ele>
        <time>2016-04-24T16:37:38Z</time>
      </trkpt>
      <trkpt lat="43.79815" lon="3.62066">
        <ele>300.30551580105</ele>
        <time>2016-04-24T16:37:46Z</time>
      </trkpt>
      <trkpt lat="43.79818" lon="3.62069">
        <ele>300.30551580105</ele>
        <time>2016-04-24T16:37:53Z</time>
      </trkpt>
      <trkpt lat="43.79812" lon="3.62083">
        <ele>296.85690749534</ele>
        <time>2016-04-24T16:38:08Z</time>
      </trkpt>
      <trkpt lat="43.79806" lon="3.62127">
        <ele>293.40813389512</ele>
        <time>2016-04-24T16:38:54Z</time>
      </trkpt>
      <trkpt lat="43.79789" lon="3.62174">
        <ele>290.11094443325</ele>
        <time>2016-04-24T16:39:34Z</time>
      </trkpt>
      <trkpt lat="43.79773" lon="3.62199">
        <ele>286.87466126072</ele>
        <time>2016-04-24T16:40:16Z</time>
      </trkpt>
      <trkpt lat="43.79769" lon="3.62205">
        <ele>286.87466126072</ele>
        <time>2016-04-24T16:40:16Z</time>
      </trkpt>
      <trkpt lat="43.79753" lon="3.62254">
        <ele>283.7156978373</ele>
        <time>2016-04-24T16:40:58Z</time>
      </trkpt>
      <trkpt lat="43.79751" lon="3.62261">
        <ele>283.7156978373</ele>
        <time>2016-04-24T16:41:03Z</time>
      </trkpt>
      <trkpt lat="43.79752" lon="3.62268">
        <ele>280.80729225992</ele>
        <time>2016-04-24T16:41:08Z</time>
      </trkpt>
      <trkpt lat="43.7975" lon="3.62275">
        <ele>280.80729225992</ele>
        <time>2016-04-24T16:41:13Z</time>
      </trkpt>
      <trkpt lat="43.79748" lon="3.62283">
        <ele>278.13604905303</ele>
        <time>2016-04-24T16:41:18Z</time>
      </trkpt>
      <trkpt lat="43.79747" lon="3.62289">
        <ele>278.13604905303</ele>
        <time>2016-04-24T16:41:23Z</time>
      </trkpt>
      <trkpt lat="43.79746" lon="3.62295">
        <ele>275.7030369823</ele>
        <time>2016-04-24T16:41:28Z</time>
      </trkpt>
      <trkpt lat="43.79744" lon="3.62303">
        <ele>275.7030369823</ele>
        <time>2016-04-24T16:41:33Z</time>
      </trkpt>
      <trkpt lat="43.79746" lon="3.6231">
        <ele>273.56596489173</ele>
        <time>2016-04-24T16:41:38Z</time>
      </trkpt>
      <trkpt lat="43.7975" lon="3.62316">
        <ele>273.56596489173</ele>
        <time>2016-04-24T16:41:43Z</time>
      </trkpt>
      <trkpt lat="43.79755" lon="3.6232">
        <ele>271.73399166856</ele>
        <time>2016-04-24T16:41:48Z</time>
      </trkpt>
      <trkpt lat="43.79759" lon="3.62325">
        <ele>271.73399166856</ele>
        <time>2016-04-24T16:41:53Z</time>
      </trkpt>
      <trkpt lat="43.7976" lon="3.62331">
        <ele>270.08481280639</ele>
        <time>2016-04-24T16:41:58Z</time>
      </trkpt>
      <trkpt lat="43.79756" lon="3.62334">
        <ele>270.08481280639</ele>
        <time>2016-04-24T16:42:03Z</time>
      </trkpt>
      <trkpt lat="43.79751" lon="3.62335">
        <ele>268.5187860882</ele>
        <time>2016-04-24T16:42:08Z</time>
      </trkpt>
      <trkpt lat="43.79746" lon="3.62335">
        <ele>268.5187860882</ele>
        <time>2016-04-24T16:42:13Z</time>
      </trkpt>
      <trkpt lat="43.7974" lon="3.62334">
        <ele>267.05843962934</ele>
        <time>2016-04-24T16:42:18Z</time>
      </trkpt>
      <trkpt lat="43.79725" lon="3.62346">
        <ele>265.65210568849</ele>
        <time>2016-04-24T16:42:46Z</time>
      </trkpt>
      <trkpt lat="43.7972" lon="3.6236">
        <ele>264.39569914053</ele>
        <time>2016-04-24T16:42:46Z</time>
      </trkpt>
      <trkpt lat="43.79719" lon="3.62361">
        <ele>264.39569914053</ele>
        <time>2016-04-24T16:42:47Z</time>
      </trkpt>
      <trkpt lat="43.79705" lon="3.6245">
        <ele>262.68577782408</ele>
        <time>2016-04-24T16:44:00Z</time>
      </trkpt>
      <trkpt lat="43.79699" lon="3.62462">
        <ele>261.2325368006</ele>
        <time>2016-04-24T16:44:00Z</time>
      </trkpt>
      <trkpt lat="43.79685" lon="3.62467">
        <ele>259.90054181715</ele>
        <time>2016-04-24T16:44:12Z</time>
      </trkpt>
      <trkpt lat="43.79684" lon="3.62467">
        <ele>259.90054181715</ele>
        <time>2016-04-24T16:44:13Z</time>
      </trkpt>
      <trkpt lat="43.79647" lon="3.62501">
        <ele>258.66473181234</ele>
        <time>2016-04-24T16:44:48Z</time>
      </trkpt>
      <trkpt lat="43.79636" lon="3.62507">
        <ele>257.6600396037</ele>
        <time>2016-04-24T16:45:23Z</time>
      </trkpt>
      <trkpt lat="43.796" lon="3.62516">
        <ele>256.95310828198</ele>
        <time>2016-04-24T16:45:58Z</time>
      </trkpt>
      <trkpt lat="43.79602" lon="3.6252">
        <ele>256.95310828198</ele>
        <time>2016-04-24T16:46:03Z</time>
      </trkpt>
      <trkpt lat="43.79633" lon="3.62569">
        <ele>256.57595867928</ele>
        <time>2016-04-24T16:46:38Z</time>
      </trkpt>
      <trkpt lat="43.79637" lon="3.62578">
        <ele>256.57595867928</ele>
        <time>2016-04-24T16:46:43Z</time>
      </trkpt>
      <trkpt lat="43.79641" lon="3.62587">
        <ele>256.44199292122</ele>
        <time>2016-04-24T16:46:48Z</time>
      </trkpt>
      <trkpt lat="43.79645" lon="3.62594">
        <ele>256.44199292122</ele>
        <time>2016-04-24T16:46:53Z</time>
      </trkpt>
      <trkpt lat="43.79649" lon="3.62599">
        <ele>256.57113576995</ele>
        <time>2016-04-24T16:46:58Z</time>
      </trkpt>
      <trkpt lat="43.79655" lon="3.62608">
        <ele>256.89462810741</ele>
        <time>2016-04-24T16:47:03Z</time>
      </trkpt>
      <trkpt lat="43.79658" lon="3.62616">
        <ele>256.89462810741</ele>
        <time>2016-04-24T16:47:08Z</time>
      </trkpt>
      <trkpt lat="43.79661" lon="3.62624">
        <ele>257.4346875856</ele>
        <time>2016-04-24T16:47:13Z</time>
      </trkpt>
      <trkpt lat="43.79667" lon="3.62631">
        <ele>257.4346875856</ele>
        <time>2016-04-24T16:47:18Z</time>
      </trkpt>
      <trkpt lat="43.79671" lon="3.62637">
        <ele>258.15367206958</ele>
        <time>2016-04-24T16:47:23Z</time>
      </trkpt>
      <trkpt lat="43.79677" lon="3.62645">
        <ele>258.15367206958</ele>
        <time>2016-04-24T16:47:28Z</time>
      </trkpt>
      <trkpt lat="43.79681" lon="3.62653">
        <ele>258.90095794777</ele>
        <time>2016-04-24T16:47:33Z</time>
      </trkpt>
      <trkpt lat="43.79686" lon="3.62658">
        <ele>258.90095794777</ele>
        <time>2016-04-24T16:47:38Z</time>
      </trkpt>
      <trkpt lat="43.79692" lon="3.62665">
        <ele>259.56579261581</ele>
        <time>2016-04-24T16:47:43Z</time>
      </trkpt>
      <trkpt lat="43.79695" lon="3.62672">
        <ele>259.56579261581</ele>
        <time>2016-04-24T16:47:48Z</time>
      </trkpt>
      <trkpt lat="43.79699" lon="3.62677">
        <ele>260.20439443541</ele>
        <time>2016-04-24T16:47:53Z</time>
      </trkpt>
      <trkpt lat="43.79718" lon="3.62714">
        <ele>261.04195748126</ele>
        <time>2016-04-24T16:48:18Z</time>
      </trkpt>
      <trkpt lat="43.79722" lon="3.62719">
        <ele>261.04195748126</ele>
        <time>2016-04-24T16:48:23Z</time>
      </trkpt>
      <trkpt lat="43.79763" lon="3.62786">
        <ele>262.44521224211</ele>
        <time>2016-04-24T16:49:15Z</time>
      </trkpt>
      <trkpt lat="43.79771" lon="3.62798">
        <ele>263.98870424495</ele>
        <time>2016-04-24T16:49:15Z</time>
      </trkpt>
      <trkpt lat="43.79784" lon="3.62825">
        <ele>265.9120761484</ele>
        <time>2016-04-24T16:49:31Z</time>
      </trkpt>
      <trkpt lat="43.79785" lon="3.62826">
        <ele>265.9120761484</ele>
        <time>2016-04-24T16:49:33Z</time>
      </trkpt>
      <trkpt lat="43.79783" lon="3.62821">
        <ele>265.9120761484</ele>
        <time>2016-04-24T16:49:38Z</time>
      </trkpt>
      <trkpt lat="43.79779" lon="3.62814">
        <ele>267.74473221879</ele>
        <time>2016-04-24T16:49:43Z</time>
      </trkpt>
      <trkpt lat="43.7978" lon="3.62806">
        <ele>267.74473221879</ele>
        <time>2016-04-24T16:49:48Z</time>
      </trkpt>
      <trkpt lat="43.79786" lon="3.62802">
        <ele>269.51223842742</ele>
        <time>2016-04-24T16:49:53Z</time>
      </trkpt>
      <trkpt lat="43.7979" lon="3.62804">
        <ele>269.51223842742</ele>
        <time>2016-04-24T16:49:58Z</time>
      </trkpt>
      <trkpt lat="43.79796" lon="3.62804">
        <ele>271.25307406548</ele>
        <time>2016-04-24T16:50:03Z</time>
      </trkpt>
      <trkpt lat="43.79801" lon="3.62804">
        <ele>271.25307406548</ele>
        <time>2016-04-24T16:50:08Z</time>
      </trkpt>
      <trkpt lat="43.79807" lon="3.62804">
        <ele>273.07523387023</ele>
        <time>2016-04-24T16:50:13Z</time>
      </trkpt>
      <trkpt lat="43.79814" lon="3.62802">
        <ele>273.07523387023</ele>
        <time>2016-04-24T16:50:18Z</time>
      </trkpt>
      <trkpt lat="43.7982" lon="3.628">
        <ele>274.80496383109</ele>
        <time>2016-04-24T16:50:24Z</time>
      </trkpt>
      <trkpt lat="43.79825" lon="3.62801">
        <ele>274.80496383109</ele>
        <time>2016-04-24T16:50:28Z</time>
      </trkpt>
      <trkpt lat="43.79829" lon="3.62799">
        <ele>276.49793404652</ele>
        <time>2016-04-24T16:50:33Z</time>
      </trkpt>
      <trkpt lat="43.79842" lon="3.62791">
        <ele>278.33577149449</ele>
        <time>2016-04-24T16:50:58Z</time>
      </trkpt>
      <trkpt lat="43.79848" lon="3.62791">
        <ele>278.33577149449</ele>
        <time>2016-04-24T16:51:03Z</time>
      </trkpt>
      <trkpt lat="43.79887" lon="3.6281">
        <ele>280.73159532442</ele>
        <time>2016-04-24T16:51:42Z</time>
      </trkpt>
      <trkpt lat="43.79893" lon="3.62808">
        <ele>280.73159532442</ele>
        <time>2016-04-24T16:51:43Z</time>
      </trkpt>
      <trkpt lat="43.79898" lon="3.62806">
        <ele>283.14456026316</ele>
        <time>2016-04-24T16:51:48Z</time>
      </trkpt>
      <trkpt lat="43.79902" lon="3.62804">
        <ele>283.14456026316</ele>
        <time>2016-04-24T16:51:53Z</time>
      </trkpt>
      <trkpt lat="43.79907" lon="3.62801">
        <ele>285.50610445076</ele>
        <time>2016-04-24T16:51:58Z</time>
      </trkpt>
      <trkpt lat="43.7991" lon="3.62799">
        <ele>285.50610445076</ele>
        <time>2016-04-24T16:52:03Z</time>
      </trkpt>
      <trkpt lat="43.79916" lon="3.62797">
        <ele>287.72429996401</ele>
        <time>2016-04-24T16:52:08Z</time>
      </trkpt>
      <trkpt lat="43.79939" lon="3.62787">
        <ele>289.95964506919</ele>
        <time>2016-04-24T16:52:33Z</time>
      </trkpt>
      <trkpt lat="43.79992" lon="3.62753">
        <ele>292.38990946571</ele>
        <time>2016-04-24T16:53:33Z</time>
      </trkpt>
      <trkpt lat="43.79995" lon="3.62748">
        <ele>292.38990946571</ele>
        <time>2016-04-24T16:53:38Z</time>
      </trkpt>
      <trkpt lat="43.79998" lon="3.62744">
        <ele>292.38990946571</ele>
        <time>2016-04-24T16:53:43Z</time>
      </trkpt>
      <trkpt lat="43.80002" lon="3.62742">
        <ele>294.79044838958</ele>
        <time>2016-04-24T16:53:48Z</time>
      </trkpt>
      <trkpt lat="43.80007" lon="3.62738">
        <ele>294.79044838958</ele>
        <time>2016-04-24T16:53:53Z</time>
      </trkpt>
      <trkpt lat="43.80012" lon="3.62734">
        <ele>297.11201918468</ele>
        <time>2016-04-24T16:53:58Z</time>
      </trkpt>
      <trkpt lat="43.80017" lon="3.62732">
        <ele>297.11201918468</ele>
        <time>2016-04-24T16:54:03Z</time>
      </trkpt>
      <trkpt lat="43.8002" lon="3.62728">
        <ele>299.32392510393</ele>
        <time>2016-04-24T16:54:08Z</time>
      </trkpt>
      <trkpt lat="43.80028" lon="3.62725">
        <ele>299.32392510393</ele>
        <time>2016-04-24T16:54:18Z</time>
      </trkpt>
      <trkpt lat="43.8003" lon="3.62723">
        <ele>301.35509489937</ele>
        <time>2016-04-24T16:54:23Z</time>
      </trkpt>
      <trkpt lat="43.80041" lon="3.62714">
        <ele>303.28459115329</ele>
        <time>2016-04-24T16:54:42Z</time>
      </trkpt>
      <trkpt lat="43.80051" lon="3.62728">
        <ele>305.3880014464</ele>
        <time>2016-04-24T16:54:53Z</time>
      </trkpt>
      <trkpt lat="43.8005" lon="3.62736">
        <ele>305.3880014464</ele>
        <time>2016-04-24T16:54:58Z</time>
      </trkpt>
      <trkpt lat="43.80048" lon="3.62743">
        <ele>307.30079074207</ele>
        <time>2016-04-24T16:55:03Z</time>
      </trkpt>
      <trkpt lat="43.80048" lon="3.62753">
        <ele>307.30079074207</ele>
        <time>2016-04-24T16:55:08Z</time>
      </trkpt>
      <trkpt lat="43.80048" lon="3.62758">
        <ele>309.01747525967</ele>
        <time>2016-04-24T16:55:13Z</time>
      </trkpt>
      <trkpt lat="43.80048" lon="3.62767">
        <ele>309.01747525967</ele>
        <time>2016-04-24T16:55:18Z</time>
      </trkpt>
      <trkpt lat="43.80049" lon="3.62773">
        <ele>310.40409948941</ele>
        <time>2016-04-24T16:55:23Z</time>
      </trkpt>
      <trkpt lat="43.80049" lon="3.62781">
        <ele>310.40409948941</ele>
        <time>2016-04-24T16:55:28Z</time>
      </trkpt>
      <trkpt lat="43.80048" lon="3.62786">
        <ele>311.51067416192</ele>
        <time>2016-04-24T16:55:33Z</time>
      </trkpt>
      <trkpt lat="43.8005" lon="3.628">
        <ele>312.4566332368</ele>
        <time>2016-04-24T16:55:38Z</time>
      </trkpt>
      <trkpt lat="43.8005" lon="3.62807">
        <ele>312.4566332368</ele>
        <time>2016-04-24T16:55:43Z</time>
      </trkpt>
      <trkpt lat="43.8005" lon="3.62816">
        <ele>313.23804175205</ele>
        <time>2016-04-24T16:55:48Z</time>
      </trkpt>
      <trkpt lat="43.80051" lon="3.62829">
        <ele>313.82312171545</ele>
        <time>2016-04-24T16:55:53Z</time>
      </trkpt>
      <trkpt lat="43.80052" lon="3.62834">
        <ele>313.82312171545</ele>
        <time>2016-04-24T16:55:58Z</time>
      </trkpt>
      <trkpt lat="43.80053" lon="3.62838">
        <ele>313.82312171545</ele>
        <time>2016-04-24T16:56:03Z</time>
      </trkpt>
      <trkpt lat="43.80056" lon="3.62843">
        <ele>314.22642650363</ele>
        <time>2016-04-24T16:56:08Z</time>
      </trkpt>
      <trkpt lat="43.80058" lon="3.6285">
        <ele>314.22642650363</ele>
        <time>2016-04-24T16:56:13Z</time>
      </trkpt>
      <trkpt lat="43.80058" lon="3.62856">
        <ele>314.51979117867</ele>
        <time>2016-04-24T16:56:18Z</time>
      </trkpt>
      <trkpt lat="43.80057" lon="3.62856">
        <ele>314.51979117867</ele>
        <time>2016-04-24T16:56:23Z</time>
      </trkpt>
    </trkseg>
  </trk>
</gpx>